
Distance (Route):
Temperature : -0.1°C
Humidity : 65.2%
Pressure : 691.2hPa| Receiver | Frames | First received | Last received |
|---|---|---|---|
| PETON7-10 | 298 | 2026-09-02 11:38:56 | 2026-09-02 12:57:31 |
| SP9KGR-15 | 86 | 2026-09-02 12:25:22 | 2026-09-02 12:51:08 |
| ATIDSZ-14 | 73 | 2026-09-02 11:27:29 | 2026-09-02 11:56:20 |
| GYPAP8-17 | 70 | 2026-09-02 11:38:14 | 2026-09-02 13:05:43 |
| OM5KV | 68 | 2026-09-02 11:22:17 | 2026-09-02 11:29:45 |
| OE5DRO-10 | 42 | 2026-09-02 12:29:38 | 2026-09-02 12:48:25 |
| OE3JTB-15 | 21 | 2026-09-02 11:39:48 | 2026-09-02 13:03:42 |
| OE5DXL-15 | 13 | 2026-09-02 12:36:45 | 2026-09-02 12:47:18 |
| SQ9EZE-14 | 4 | 2026-09-02 12:20:28 | 2026-09-02 12:27:56 |
| DO3MHA-12 | 2 | 2026-09-02 12:46:10 | 2026-09-02 12:47:15 |
| Receiver | Date | Latitude | Longitude | Direction | Speed | Altitude | Climb | Temperature | Humidity | Pressure | Voltage | Killtimer | Uptime | BKT | XDATA |
|---|---|---|---|---|---|---|---|---|---|---|---|---|---|---|---|
| GYPAP8-17 | 2026-09-02 13:05:43 | 47.44944 | 20.11995 | 113° | 42km/h | 3295m | -14.4m/s | -0.1°C | 65.2% | 691.2hPa | 2.7V | 00:00:00 | 00:00:00 | 00:00:00 | |
| GYPAP8-17 | 2026-09-02 13:04:41 | 47.45195 | 20.11155 | 110° | 40km/h | 4156m | -13.5m/s | -3.8°C | 30.9% | 620.4hPa | 2.7V | 00:00:00 | 00:00:00 | 00:00:00 | |
| OE3JTB-15 | 2026-09-02 13:03:42 | 47.45336 | 20.10152 | 101° | 40km/h | 4994m | -14.0m/s | -10.3°C | 57.4% | 557.2hPa | 2.7V | 00:00:00 | 00:00:00 | 00:00:00 | |
| GYPAP8-17 | 2026-09-02 13:03:37 | 47.45338 | 20.10135 | 98° | 46km/h | 5008m | -13.8m/s | -10.5°C | 56.3% | 556.4hPa | 2.6V | 00:00:00 | 00:00:00 | 00:00:00 | |
| OE3JTB-15 | 2026-09-02 13:03:14 | 47.45400 | 20.09732 | 107° | 37km/h | 5375m | -14.1m/s | -13.2°C | 64.4% | 530.5hPa | 2.6V | 00:00:00 | 00:00:00 | 00:00:00 | |
| OE3JTB-15 | 2026-09-02 13:02:39 | 47.45468 | 20.09262 | 102° | 51km/h | 5834m | -15.5m/s | -14.0°C | 16.8% | 499.4hPa | 2.6V | 00:00:00 | 02:07:27 | 00:00:00 | |
| GYPAP8-17 | 2026-09-02 13:02:35 | 47.45467 | 20.09262 | 102° | 47km/h | 5834m | -15.5m/s | -14.0°C | 16.0% | 499.5hPa | 2.6V | 00:00:00 | 00:00:00 | 00:00:00 | |
| OE3JTB-15 | 2026-09-02 13:02:06 | 47.45594 | 20.08614 | 110° | 57km/h | 6297m | -13.7m/s | -17.1°C | 28.5% | 469.6hPa | 2.6V | 00:00:00 | 00:00:00 | 00:00:00 | |
| OE3JTB-15 | 2026-09-02 13:01:37 | 47.45730 | 20.08044 | 109° | 62km/h | 6697m | -14.6m/s | -20.4°C | 21.1% | 444.8hPa | 2.6V | 00:00:00 | 00:00:00 | 00:00:00 | |
| GYPAP8-17 | 2026-09-02 13:01:27 | 47.45768 | 20.07891 | 109° | 64km/h | 6802m | -16.1m/s | -21.2°C | 18.3% | 438.8hPa | 2.6V | 00:00:00 | 00:00:00 | 00:00:00 | |
| OE3JTB-15 | 2026-09-02 13:01:09 | 47.45854 | 20.07407 | 99° | 57km/h | 7119m | -15.9m/s | -23.8°C | 24.8% | 420.2hPa | 2.6V | 00:00:00 | 02:05:57 | 00:00:00 | |
| GYPAP8-17 | 2026-09-02 13:00:24 | 47.45939 | 20.06578 | 95° | 58km/h | 7707m | -16.1m/s | -29.3°C | 28.6% | 387.4hPa | 2.6V | 00:00:00 | 00:00:00 | 00:00:00 | |
| OE3JTB-15 | 2026-09-02 12:59:32 | 47.45995 | 20.05341 | 104° | 66km/h | 8538m | -13.7m/s | -34.1°C | 8.6% | 344.3hPa | 2.6V | 00:00:00 | 00:00:00 | 08:30:00 | |
| GYPAP8-17 | 2026-09-02 12:59:21 | 47.46019 | 20.05199 | 105° | 58km/h | 8638m | -17.0m/s | -34.9°C | 6.5% | 339.6hPa | 2.6V | 00:00:00 | 00:00:00 | 00:00:00 | |
| GYPAP8-17 | 2026-09-02 12:58:25 | 47.46164 | 20.03679 | 95° | 78km/h | 9638m | -19.5m/s | -43.5°C | 21.1% | 293.8hPa | 2.6V | 00:00:00 | 00:00:00 | 00:00:00 | |
| OE3JTB-15 | 2026-09-02 12:57:54 | 47.46177 | 20.02712 | 89° | 89km/h | 10268m | -19.6m/s | -49.0°C | 34.0% | 267.2hPa | 2.6V | 00:00:00 | 02:02:43 | 00:00:00 | |
| PETON7-10 | 2026-09-02 12:57:31 | 47.46154 | 20.02037 | 85° | 97km/h | 10663m | -19.6m/s | -52.1°C | 31.3% | 251.5hPa | 2.6V | 00:00:00 | 00:00:00 | 00:00:00 | |
| OE3JTB-15 | 2026-09-02 12:57:25 | 47.46138 | 20.01753 | 86° | 95km/h | 10816m | -20.5m/s | -53.2°C | 29.5% | 245.7hPa | 2.6V | 00:00:00 | 00:00:00 | 00:00:00 | |
| GYPAP8-17 | 2026-09-02 12:57:19 | 47.46134 | 20.01645 | 88° | 99km/h | 10875m | -20.5m/s | -53.7°C | 23.5% | 243.6hPa | 2.6V | 00:00:00 | 00:00:00 | 00:00:00 | |
| PETON7-10 | 2026-09-02 12:57:12 | 47.46116 | 20.01346 | 85° | 104km/h | 11032m | -20.4m/s | -54.8°C | 26.4% | 237.7hPa | 2.6V | 00:00:00 | 02:02:03 | 00:00:00 | |
| PETON7-10 | 2026-09-02 12:56:57 | 47.46074 | 20.00771 | 86° | 99km/h | 11326m | -20.2m/s | -55.9°C | 17.4% | 227.0hPa | 2.6V | 00:00:00 | 00:00:00 | 00:00:00 | |
| PETON7-10 | 2026-09-02 12:56:42 | 47.46023 | 20.00223 | 79° | 95km/h | 11627m | -21.1m/s | -55.3°C | 9.4% | 216.5hPa | 2.6V | 00:00:00 | 00:00:00 | 00:00:00 | |
| PETON7-10 | 2026-09-02 12:56:27 | 47.45973 | 19.99692 | 88° | 89km/h | 11942m | -21.8m/s | -53.8°C | 5.6% | 206.4hPa | 2.6V | 00:00:00 | 02:01:18 | 00:00:00 | |
| GYPAP8-17 | 2026-09-02 12:56:14 | 47.45934 | 19.99299 | 78° | 88km/h | 12195m | -21.8m/s | -51.8°C | 2.0% | 198.5hPa | 2.6V | 00:00:00 | 00:00:00 | 00:00:00 | |
| PETON7-10 | 2026-09-02 12:55:35 | 47.45733 | 19.97994 | 78° | 75km/h | 13077m | -23.5m/s | -51.3°C | 3.5% | 173.4hPa | 2.6V | 00:00:00 | 00:00:00 | 00:00:00 | |
| OE3JTB-15 | 2026-09-02 12:55:33 | 47.45715 | 19.97877 | 76° | 82km/h | 13169m | -23.7m/s | -51.7°C | 3.6% | 170.9hPa | 2.6V | 00:00:00 | 00:00:00 | 00:00:00 | |
| PETON7-10 | 2026-09-02 12:55:20 | 47.45686 | 19.97583 | 85° | 77km/h | 13424m | -23.7m/s | -51.8°C | 3.5% | 164.3hPa | 2.6V | 00:00:00 | 02:00:11 | 00:00:00 | |
| GYPAP8-17 | 2026-09-02 12:55:09 | 47.45636 | 19.97285 | 74° | 80km/h | 13676m | -21.8m/s | -51.8°C | 1.1% | 158.1hPa | 2.6V | 00:00:00 | 00:00:00 | 00:00:00 | |
| PETON7-10 | 2026-09-02 12:55:04 | 47.45605 | 19.97136 | 74° | 91km/h | 13766m | -19.2m/s | -51.7°C | 3.4% | 155.7hPa | 2.6V | 00:00:00 | 00:00:00 | 00:00:00 | |
| OE3JTB-15 | 2026-09-02 12:54:54 | 47.45528 | 19.96747 | 77° | 75km/h | 14003m | -23.4m/s | -52.0°C | 3.4% | 150.3hPa | 2.7V | 00:00:00 | 01:59:43 | 00:00:00 | |
| PETON7-10 | 2026-09-02 12:54:49 | 47.45512 | 19.96642 | 80° | 86km/h | 14073m | -23.9m/s | -51.8°C | 3.4% | 148.7hPa | 2.7V | 00:00:00 | 00:00:00 | 00:00:00 | |
| PETON7-10 | 2026-09-02 12:54:33 | 47.45476 | 19.96124 | 84° | 71km/h | 14448m | -25.5m/s | -52.8°C | 3.7% | 140.4hPa | 2.7V | 00:00:00 | 01:59:24 | 00:00:00 | |
| PETON7-10 | 2026-09-02 12:54:18 | 47.45432 | 19.95725 | 85° | 66km/h | 14885m | -31.5m/s | -52.7°C | 3.4% | 131.6hPa | 2.7V | 00:00:00 | 00:00:00 | 00:00:00 | |
| PETON7-10 | 2026-09-02 12:54:03 | 47.45405 | 19.95356 | 88° | 58km/h | 15349m | -30.0m/s | -52.9°C | 3.5% | 122.4hPa | 2.7V | 00:00:00 | 00:00:00 | 00:00:00 | |
| OE3JTB-15 | 2026-09-02 12:53:48 | 47.45401 | 19.94967 | 94° | 46km/h | 15908m | -31.4m/s | -53.6°C | 3.5% | 112.4hPa | 2.7V | 00:00:00 | 00:00:00 | 00:00:00 | |
| GYPAP8-17 | 2026-09-02 12:53:41 | 47.45401 | 19.94912 | 90° | 47km/h | 16003m | -32.3m/s | -53.8°C | 0.9% | 110.8hPa | 2.7V | 00:00:00 | 00:00:00 | 00:00:00 | |
| PETON7-10 | 2026-09-02 12:53:33 | 47.45388 | 19.94765 | 75° | 46km/h | 16292m | -33.9m/s | -53.8°C | 3.5% | 106.0hPa | 2.7V | 08:24:00 | 00:00:00 | 00:00:00 | |
| PETON7-10 | 2026-09-02 12:53:18 | 47.45340 | 19.94514 | 73° | 51km/h | 16781m | -31.7m/s | -54.2°C | 3.6% | 98.2hPa | 2.7V | 00:00:00 | 00:00:00 | 00:00:00 | |
| PETON7-10 | 2026-09-02 12:53:03 | 47.45298 | 19.94229 | 85° | 49km/h | 17247m | -31.9m/s | -54.4°C | 3.7% | 91.3hPa | 2.7V | 00:00:00 | 01:57:54 | 00:00:00 | |
| PETON7-10 | 2026-09-02 12:52:32 | 47.45289 | 19.93750 | 100° | 29km/h | 18229m | -32.8m/s | -53.2°C | 3.4% | 78.5hPa | 2.7V | 00:00:00 | 00:00:00 | 00:00:00 | |
| PETON7-10 | 2026-09-02 12:52:17 | 47.45321 | 19.93601 | 84° | 18km/h | 18721m | -34.1m/s | -51.6°C | 2.9% | 72.8hPa | 2.7V | 00:00:00 | 01:57:08 | 00:00:00 | |
| PETON7-10 | 2026-09-02 12:52:02 | 47.45301 | 19.93504 | 104° | 16km/h | 19219m | -35.5m/s | -54.3°C | 3.5% | 67.5hPa | 2.7V | 00:00:00 | 00:00:00 | 00:00:00 | |
| GYPAP8-17 | 2026-09-02 12:51:53 | 47.45318 | 19.93457 | 115° | 15km/h | 19492m | -33.9m/s | -54.3°C | 0.8% | 64.7hPa | 2.6V | 00:00:00 | 00:00:00 | 00:00:00 | |
| PETON7-10 | 2026-09-02 12:51:47 | 47.45316 | 19.93418 | 87° | 15km/h | 19725m | -34.6m/s | -54.6°C | 3.8% | 62.4hPa | 2.6V | 00:00:00 | 00:00:00 | 00:00:00 | |
| PETON7-10 | 2026-09-02 12:51:32 | 47.45325 | 19.93334 | 69° | 16km/h | 20270m | -37.7m/s | -52.7°C | 3.4% | 57.4hPa | 2.6V | 00:00:00 | 01:56:23 | 00:00:00 | |
| PETON7-10 | 2026-09-02 12:51:17 | 47.45306 | 19.93241 | 115° | 9km/h | 20814m | -37.8m/s | -51.5°C | 3.1% | 52.9hPa | 2.6V | 08:26:00 | 00:00:00 | 00:00:00 | |
| SP9KGR-15 | 2026-09-02 12:51:08 | 47.45312 | 19.93230 | 358° | 7km/h | 21109m | -35.0m/s | -52.0°C | 0.6% | 50.5hPa | 2.6V | 08:27:00 | 00:00:00 | 00:00:00 | |
| PETON7-10 | 2026-09-02 12:51:02 | 47.45292 | 19.93219 | 41° | 11km/h | 21358m | -40.4m/s | -52.7°C | 3.4% | 48.7hPa | 2.6V | 00:00:00 | 00:00:00 | 00:00:00 | |
| PETON7-10 | 2026-09-02 12:50:48 | 47.45273 | 19.93165 | 27° | 16km/h | 21981m | -39.6m/s | -52.0°C | 3.3% | 44.2hPa | 2.6V | 00:00:00 | 01:55:38 | 00:00:00 | |
| GYPAP8-17 | 2026-09-02 12:50:47 | 47.45273 | 19.93165 | 28° | 7km/h | 21981m | -39.7m/s | -52.0°C | 0.6% | 44.3hPa | 2.6V | 00:00:00 | 00:00:00 | 00:00:00 | |
| SP9KGR-15 | 2026-09-02 12:50:33 | 47.45233 | 19.93111 | 69° | 20km/h | 22489m | -40.9m/s | -51.7°C | 0.6% | 41.0hPa | 2.6V | 00:00:00 | 00:00:00 | 00:00:00 | |
| PETON7-10 | 2026-09-02 12:50:32 | 47.45230 | 19.93098 | 100° | 13km/h | 22574m | -44.8m/s | -51.8°C | 3.2% | 40.5hPa | 2.6V | 00:00:00 | 00:00:00 | 00:00:00 | |
| PETON7-10 | 2026-09-02 12:50:17 | 47.45258 | 19.93050 | 245° | 4km/h | 23221m | -44.2m/s | -52.5°C | 3.5% | 36.6hPa | 2.6V | 00:00:00 | 00:00:00 | 00:00:00 | |
| PETON7-10 | 2026-09-02 12:50:02 | 47.45262 | 19.93064 | 188° | 5km/h | 23891m | -45.1m/s | -52.1°C | 3.5% | 33.1hPa | 2.6V | 00:00:00 | 01:54:53 | 00:00:00 | |
| SP9KGR-15 | 2026-09-02 12:50:01 | 47.45262 | 19.93064 | 189° | 2km/h | 23891m | -45.1m/s | -52.2°C | 0.6% | 33.1hPa | 2.6V | 00:00:00 | 00:00:00 | 00:00:00 | |
| PETON7-10 | 2026-09-02 12:49:47 | 47.45242 | 19.93058 | 41° | 9km/h | 24579m | -45.8m/s | -51.2°C | 3.4% | 29.7hPa | 2.6V | 00:00:00 | 00:00:00 | 00:00:00 | |
| SP9KGR-15 | 2026-09-02 12:49:44 | 47.45237 | 19.93051 | 65° | 7km/h | 24710m | -43.3m/s | -51.1°C | 0.6% | 29.2hPa | 2.6V | 00:00:00 | 00:00:00 | 00:00:00 | |
| GYPAP8-17 | 2026-09-02 12:49:37 | 47.45232 | 19.93028 | 67° | 11km/h | 24974m | -45.9m/s | -50.3°C | 0.5% | 28.1hPa | 2.6V | 00:00:00 | 00:00:00 | 00:00:00 | |
| PETON7-10 | 2026-09-02 12:49:32 | 47.45224 | 19.93010 | 38° | 4km/h | 25237m | -43.2m/s | -49.8°C | 3.2% | 26.9hPa | 2.6V | 00:00:00 | 00:00:00 | 00:00:00 | |
| SP9KGR-15 | 2026-09-02 12:49:27 | 47.45222 | 19.93005 | 160° | 4km/h | 25412m | -45.8m/s | -49.5°C | 0.5% | 26.3hPa | 2.6V | 00:00:00 | 00:00:00 | 00:00:00 | |
| PETON7-10 | 2026-09-02 12:49:17 | 47.45230 | 19.93001 | 217° | 4km/h | 25921m | -48.5m/s | -47.7°C | 2.8% | 24.3hPa | 2.6V | 00:00:00 | 01:54:08 | 00:00:00 | |
| SP9KGR-15 | 2026-09-02 12:49:13 | 47.45234 | 19.93007 | 237° | 7km/h | 26116m | -50.5m/s | -47.4°C | 0.4% | 23.7hPa | 2.6V | 00:00:00 | 00:00:00 | 00:00:00 | |
| PETON7-10 | 2026-09-02 12:49:02 | 47.45228 | 19.93015 | 222° | 4km/h | 26655m | -47.6m/s | -46.9°C | 2.7% | 21.8hPa | 2.6V | 08:28:00 | 00:00:00 | 00:00:00 | |
| SP9KGR-15 | 2026-09-02 12:48:57 | 47.45227 | 19.93014 | 0° | 0km/h | 26895m | -50.2m/s | -47.0°C | 0.5% | 21.1hPa | 2.6V | 08:29:00 | 00:00:00 | 00:00:00 | |
| PETON7-10 | 2026-09-02 12:48:47 | 47.45217 | 19.93022 | 351° | 13km/h | 27396m | -49.5m/s | -46.3°C | 2.8% | 19.6hPa | 2.6V | 00:00:00 | 00:00:00 | 00:00:00 | |
| SP9KGR-15 | 2026-09-02 12:48:40 | 47.45202 | 19.93018 | 60° | 9km/h | 27691m | -50.2m/s | -45.8°C | 0.4% | 18.8hPa | 2.6V | 08:29:00 | 00:00:00 | 00:00:00 | |
| PETON7-10 | 2026-09-02 12:48:32 | 47.45186 | 19.92973 | 87° | 13km/h | 28147m | -51.9m/s | -43.9°C | 2.5% | 17.5hPa | 2.6V | 00:00:00 | 01:53:23 | 00:00:00 | |
| OE5DRO-10 | 2026-09-02 12:48:25 | 47.45189 | 19.92935 | 104° | 18km/h | 28507m | -49.3m/s | -42.5°C | 2.2% | 16.6hPa | 2.6V | 00:00:00 | 00:00:00 | 00:00:00 | |
| SP9KGR-15 | 2026-09-02 12:48:24 | 47.45189 | 19.92935 | 105° | 13km/h | 28507m | -49.3m/s | -42.5°C | 0.3% | 16.7hPa | 2.6V | 08:29:00 | 00:00:00 | 00:00:00 | |
| PETON7-10 | 2026-09-02 12:48:17 | 47.45184 | 19.92901 | 61° | 20km/h | 28911m | -50.1m/s | -40.7°C | 2.0% | 15.7hPa | 2.6V | 00:00:00 | 00:00:00 | 00:00:00 | |
| SP9KGR-15 | 2026-09-02 12:48:08 | 47.45175 | 19.92840 | 103° | 20km/h | 29338m | -56.1m/s | -40.8°C | 0.2% | 14.8hPa | 2.7V | 00:00:00 | 00:00:00 | 00:00:00 | |
| OE5DRO-10 | 2026-09-02 12:48:06 | 47.45177 | 19.92818 | 99° | 22km/h | 29506m | -56.1m/s | -40.9°C | 2.0% | 14.4hPa | 2.7V | 00:00:00 | 00:00:00 | 00:00:00 | |
| PETON7-10 | 2026-09-02 12:48:02 | 47.45176 | 19.92796 | 81° | 22km/h | 29734m | -59.2m/s | -40.5°C | 2.0% | 14.0hPa | 2.7V | 00:00:00 | 00:00:00 | 00:00:00 | |
| SP9KGR-15 | 2026-09-02 12:47:51 | 47.45156 | 19.92726 | 92° | 26km/h | 30318m | -60.2m/s | -39.8°C | 0.2% | 12.9hPa | 2.7V | 00:00:00 | 00:00:00 | 00:00:00 | |
| PETON7-10 | 2026-09-02 12:47:47 | 47.45158 | 19.92675 | 101° | 20km/h | 30621m | -62.2m/s | -39.7°C | 1.9% | 12.3hPa | 2.7V | 00:00:00 | 01:52:38 | 00:00:00 | |
| SP9KGR-15 | 2026-09-02 12:47:35 | 47.45149 | 19.92597 | 94° | 16km/h | 31324m | -55.7m/s | -38.8°C | 0.2% | 11.1hPa | 2.7V | 00:00:00 | 00:00:00 | 00:00:00 | |
| PETON7-10 | 2026-09-02 12:47:32 | 47.45150 | 19.92567 | 93° | 38km/h | 31505m | -64.9m/s | -38.3°C | 1.7% | 10.8hPa | 2.7V | 00:00:00 | 00:00:00 | 00:00:00 | |
| OE5DRO-10 | 2026-09-02 12:47:28 | 47.45157 | 19.92498 | 95° | 37km/h | 31719m | -41.6m/s | -38.5°C | 1.7% | 10.4hPa | 2.7V | 00:00:00 | 00:00:00 | 00:00:00 | |
| GYPAP8-17 | 2026-09-02 12:47:25 | 47.45158 | 19.92446 | 87° | 42km/h | 31814m | -21.3m/s | -38.3°C | 0.2% | 10.3hPa | 2.7V | 00:00:00 | 00:00:00 | 00:00:00 | |
| OE5DXL-15 | 2026-09-02 12:47:18 | 47.45145 | 19.92383 | 129° | 31km/h | 31814m | 6.0m/s | -38.3°C | 1.7% | 10.2hPa | 2.7V | 00:00:00 | 00:00:00 | 00:00:00 | |
| PETON7-10 | 2026-09-02 12:47:17 | 47.45149 | 19.92374 | 125° | 33km/h | 31808m | 7.8m/s | -38.4°C | 1.7% | 10.2hPa | 2.7V | 00:00:00 | 00:00:00 | 00:00:00 | |
| DO3MHA-12 | 2026-09-02 12:47:15 | 47.45157 | 19.92349 | 103° | 29km/h | 31792m | 5.5m/s | 0°C | 0% | 0hPa | 2.7V | 00:00:00 | 01:52:06 | 00:00:00 | |
| OE5DRO-10 | 2026-09-02 12:47:09 | 47.45142 | 19.92281 | 52° | 29km/h | 31748m | 8.7m/s | -38.7°C | 1.7% | 10.3hPa | 2.7V | 00:00:00 | 00:00:00 | 00:00:00 | |
| PETON7-10 | 2026-09-02 12:47:02 | 47.45106 | 19.92222 | 78° | 27km/h | 31695m | 8.3m/s | -38.7°C | 1.7% | 10.4hPa | 2.7V | 00:00:00 | 01:51:53 | 00:00:00 | |
| SP9KGR-15 | 2026-09-02 12:46:59 | 47.45104 | 19.92203 | 91° | 26km/h | 31681m | 6.0m/s | -38.8°C | 0.2% | 10.5hPa | 2.7V | 00:00:00 | 00:00:00 | 00:00:00 | |
| OE5DRO-10 | 2026-09-02 12:46:50 | 47.45065 | 19.92120 | 31° | 22km/h | 31607m | 6.2m/s | -39.1°C | 1.8% | 10.5hPa | 2.7V | 00:00:00 | 00:00:00 | 00:00:00 | |
| OE5DXL-15 | 2026-09-02 12:46:48 | 47.45055 | 19.92108 | 51° | 18km/h | 31594m | 8.0m/s | -39.1°C | 1.8% | 10.5hPa | 2.7V | 00:00:00 | 00:00:00 | 00:00:00 | |
| PETON7-10 | 2026-09-02 12:46:47 | 47.45051 | 19.92100 | 63° | 20km/h | 31586m | 8.8m/s | -39.1°C | 1.8% | 10.5hPa | 2.7V | 00:00:00 | 00:00:00 | 08:30:00 | |
| SP9KGR-15 | 2026-09-02 12:46:42 | 47.45047 | 19.92067 | 96° | 15km/h | 31557m | 8.3m/s | -39.3°C | 0.2% | 10.6hPa | 2.6V | 00:00:00 | 00:00:00 | 00:00:00 | |
| PETON7-10 | 2026-09-02 12:46:32 | 47.45013 | 19.92013 | 52° | 15km/h | 31475m | 6.5m/s | -39.1°C | 1.8% | 10.7hPa | 2.6V | 00:00:00 | 00:00:00 | 00:00:00 | |
| OE5DRO-10 | 2026-09-02 12:46:31 | 47.45010 | 19.92007 | 64° | 13km/h | 31469m | 5.3m/s | -39.1°C | 1.7% | 10.7hPa | 2.6V | 00:00:00 | 00:00:00 | 00:00:00 | |
| SP9KGR-15 | 2026-09-02 12:46:26 | 47.45009 | 19.91993 | 0° | 0km/h | 31441m | 4.6m/s | -39.2°C | 0.2% | 10.8hPa | 2.6V | 00:00:00 | 00:00:00 | 00:00:00 | |
| OE5DXL-15 | 2026-09-02 12:46:18 | 47.44972 | 19.91990 | 18° | 15km/h | 31379m | 8.4m/s | -39.6°C | 1.8% | 10.9hPa | 2.6V | 00:00:00 | 00:00:00 | 00:00:00 | |
| PETON7-10 | 2026-09-02 12:46:17 | 47.44969 | 19.91987 | 47° | 13km/h | 31370m | 7.3m/s | -39.5°C | 1.8% | 10.9hPa | 2.6V | 00:00:00 | 01:51:08 | 00:00:00 | |
| OE5DRO-10 | 2026-09-02 12:46:12 | 47.44964 | 19.91971 | 39° | 13km/h | 31336m | 5.8m/s | -39.5°C | 1.8% | 10.9hPa | 2.6V | 00:00:00 | 00:00:00 | 08:30:00 | |
| DO3MHA-12 | 2026-09-02 12:46:10 | 47.44960 | 19.91965 | 40° | 15km/h | 31321m | 8.4m/s | 0°C | 0% | 0hPa | 2.7V | 00:00:00 | 01:51:01 | 00:00:00 | |
| GYPAP8-17 | 2026-09-02 12:46:09 | 47.44960 | 19.91965 | 40° | 18km/h | 31321m | 8.5m/s | -39.5°C | 0.2% | 11.0hPa | 2.7V | 00:00:00 | 00:00:00 | 00:00:00 | |
| PETON7-10 | 2026-09-02 12:46:02 | 47.44938 | 19.91943 | 107° | 15km/h | 31265m | 6.2m/s | -39.4°C | 1.8% | 11.0hPa | 2.7V | 00:00:00 | 00:00:00 | 00:00:00 | |
| SP9KGR-15 | 2026-09-02 12:45:55 | 47.44939 | 19.91928 | 63° | 15km/h | 31222m | 8.6m/s | -39.5°C | 0.2% | 11.1hPa | 2.6V | 00:00:00 | 00:00:00 | 00:00:00 | |
| OE5DRO-10 | 2026-09-02 12:45:53 | 47.44931 | 19.91910 | 54° | 22km/h | 31201m | 7.7m/s | -39.4°C | 1.8% | 11.1hPa | 2.6V | 00:00:00 | 00:00:00 | 00:00:00 | |
| PETON7-10 | 2026-09-02 12:45:47 | 47.44927 | 19.91865 | 107° | 24km/h | 31160m | 6.9m/s | -39.6°C | 1.8% | 11.2hPa | 2.6V | 00:00:00 | 00:00:00 | 00:00:00 | |
| SP9KGR-15 | 2026-09-02 12:45:40 | 47.44929 | 19.91833 | 74° | 24km/h | 31116m | 6.7m/s | -39.8°C | 0.2% | 11.3hPa | 2.6V | 00:00:00 | 00:00:00 | 00:00:00 | |
| OE5DRO-10 | 2026-09-02 12:45:34 | 47.44927 | 19.91760 | 110° | 29km/h | 31067m | 4.7m/s | -39.8°C | 1.8% | 11.3hPa | 2.6V | 00:00:00 | 00:00:00 | 00:00:00 | |
| PETON7-10 | 2026-09-02 12:45:32 | 47.44934 | 19.91737 | 120° | 29km/h | 31055m | 8.5m/s | -39.9°C | 1.8% | 11.4hPa | 2.6V | 00:00:00 | 01:50:23 | 00:00:00 | |
| SP9KGR-15 | 2026-09-02 12:45:23 | 47.44944 | 19.91674 | 72° | 27km/h | 30998m | 5.9m/s | -40.3°C | 0.3% | 11.5hPa | 2.6V | 00:00:00 | 00:00:00 | 00:00:00 | |
| OE5DRO-10 | 2026-09-02 12:45:15 | 47.44949 | 19.91571 | 115° | 38km/h | 30938m | 7.5m/s | -40.4°C | 1.9% | 11.5hPa | 2.6V | 00:00:00 | 00:00:00 | 00:00:00 | |
| SP9KGR-15 | 2026-09-02 12:45:07 | 47.44960 | 19.91488 | 97° | 40km/h | 30888m | 8.0m/s | -40.6°C | 0.2% | 11.7hPa | 2.6V | 00:00:00 | 00:00:00 | 00:00:00 | |
| OE5DRO-10 | 2026-09-02 12:44:56 | 47.44975 | 19.91308 | 88° | 38km/h | 30800m | 7.1m/s | -40.5°C | 1.9% | 11.8hPa | 2.6V | 00:00:00 | 00:00:00 | 00:00:00 | |
| SP9KGR-15 | 2026-09-02 12:44:51 | 47.44978 | 19.91248 | 98° | 46km/h | 30772m | 6.0m/s | -40.6°C | 0.2% | 11.9hPa | 2.6V | 00:00:00 | 00:00:00 | 00:00:00 | |
| PETON7-10 | 2026-09-02 12:44:47 | 47.44984 | 19.91181 | 91° | 35km/h | 30739m | 6.7m/s | -40.6°C | 1.9% | 11.9hPa | 2.6V | 00:00:00 | 01:49:38 | 00:00:00 | |
| OE5DXL-15 | 2026-09-02 12:44:46 | 47.44984 | 19.91168 | 88° | 35km/h | 30731m | 8.0m/s | -40.5°C | 1.9% | 11.9hPa | 2.6V | 00:00:00 | 00:00:00 | 00:00:00 | |
| OE5DRO-10 | 2026-09-02 12:44:37 | 47.44981 | 19.91036 | 78° | 35km/h | 30668m | 5.4m/s | -40.8°C | 2.0% | 12.0hPa | 2.6V | 00:00:00 | 00:00:00 | 00:00:00 | |
| SP9KGR-15 | 2026-09-02 12:44:35 | 47.44979 | 19.91023 | 77° | 35km/h | 30662m | 6.9m/s | -41.0°C | 0.2% | 12.1hPa | 2.6V | 00:00:00 | 00:00:00 | 00:00:00 | |
| PETON7-10 | 2026-09-02 12:44:32 | 47.44973 | 19.90985 | 75° | 33km/h | 30632m | 7.7m/s | -41.1°C | 2.0% | 12.1hPa | 2.6V | 00:00:00 | 00:00:00 | 08:30:00 | |
| SP9KGR-15 | 2026-09-02 12:44:19 | 47.44937 | 19.90830 | 56° | 27km/h | 30547m | 8.5m/s | -40.9°C | 0.2% | 12.3hPa | 2.7V | 00:00:00 | 00:00:00 | 00:00:00 | |
| OE5DRO-10 | 2026-09-02 12:44:18 | 47.44930 | 19.90817 | 50° | 22km/h | 30532m | 7.0m/s | -40.8°C | 1.9% | 12.2hPa | 2.7V | 00:00:00 | 00:00:00 | 00:00:00 | |
| OE5DXL-15 | 2026-09-02 12:44:17 | 47.44923 | 19.90806 | 47° | 22km/h | 30516m | 7.2m/s | -40.7°C | 2.0% | 12.3hPa | 2.7V | 00:00:00 | 00:00:00 | 08:30:00 | |
| SP9KGR-15 | 2026-09-02 12:44:04 | 47.44897 | 19.90704 | 68° | 16km/h | 30435m | 6.6m/s | -41.1°C | 0.2% | 12.5hPa | 2.6V | 00:00:00 | 00:00:00 | 00:00:00 | |
| PETON7-10 | 2026-09-02 12:44:02 | 47.44890 | 19.90692 | 39° | 18km/h | 30413m | 6.9m/s | -41.0°C | 2.0% | 12.5hPa | 2.6V | 00:00:00 | 01:48:53 | 00:00:00 | |
| OE5DRO-10 | 2026-09-02 12:43:58 | 47.44882 | 19.90680 | 74° | 22km/h | 30383m | 3.7m/s | -40.7°C | 2.0% | 12.5hPa | 2.6V | 00:00:00 | 00:00:00 | 00:00:00 | |
| SP9KGR-15 | 2026-09-02 12:43:48 | 47.44861 | 19.90614 | 50° | 22km/h | 30315m | 8.4m/s | -40.5°C | 0.2% | 12.7hPa | 2.6V | 00:00:00 | 00:00:00 | 00:00:00 | |
| PETON7-10 | 2026-09-02 12:43:47 | 47.44853 | 19.90603 | 44° | 26km/h | 30302m | 5.8m/s | -40.4°C | 1.9% | 12.7hPa | 2.6V | 00:00:00 | 00:00:00 | 00:00:00 | |
| OE3JTB-15 | 2026-09-02 12:43:46 | 47.44846 | 19.90582 | 78° | 16km/h | 30273m | 7.7m/s | -40.3°C | 1.9% | 12.7hPa | 2.6V | 00:00:00 | 01:48:34 | 00:00:00 | |
| OE5DRO-10 | 2026-09-02 12:43:39 | 47.44834 | 19.90535 | 63° | 24km/h | 30243m | 8.3m/s | -40.4°C | 1.9% | 12.7hPa | 2.6V | 00:00:00 | 00:00:00 | 00:00:00 | |
| PETON7-10 | 2026-09-02 12:43:32 | 47.44799 | 19.90495 | 35° | 22km/h | 30191m | 8.5m/s | -40.6°C | 1.9% | 12.8hPa | 2.6V | 00:00:00 | 00:00:00 | 00:00:00 | |
| OE5DRO-10 | 2026-09-02 12:43:20 | 47.44767 | 19.90412 | 5° | 15km/h | 30099m | 6.2m/s | -40.6°C | 1.9% | 13.0hPa | 2.6V | 00:00:00 | 00:00:00 | 08:30:00 | |
| PETON7-10 | 2026-09-02 12:43:17 | 47.44758 | 19.90413 | 1° | 15km/h | 30076m | 7.0m/s | -40.6°C | 1.9% | 13.1hPa | 2.7V | 00:00:00 | 01:48:08 | 00:00:00 | |
| OE5DXL-15 | 2026-09-02 12:43:16 | 47.44758 | 19.90412 | 83° | 16km/h | 30070m | 5.9m/s | -40.5°C | 1.9% | 13.1hPa | 2.7V | 00:00:00 | 00:00:00 | 00:00:00 | |
| PETON7-10 | 2026-09-02 12:43:02 | 47.44728 | 19.90390 | 196° | 15km/h | 29966m | 6.6m/s | -40.8°C | 1.9% | 13.3hPa | 2.7V | 00:00:00 | 00:00:00 | 00:00:00 | |
| OE5DRO-10 | 2026-09-02 12:43:01 | 47.44732 | 19.90390 | 167° | 16km/h | 29959m | 6.9m/s | -40.9°C | 1.9% | 13.3hPa | 2.7V | 00:00:00 | 00:00:00 | 00:00:00 | |
| SP9KGR-15 | 2026-09-02 12:43:00 | 47.44732 | 19.90390 | 167° | 15km/h | 29959m | 7.0m/s | -40.9°C | 0.2% | 13.3hPa | 2.7V | 00:00:00 | 00:00:00 | 00:00:00 | |
| GYPAP8-17 | 2026-09-02 12:42:55 | 47.44736 | 19.90364 | 61° | 15km/h | 29920m | 8.5m/s | -41.3°C | 0.2% | 13.4hPa | 2.7V | 00:00:00 | 00:00:00 | 00:00:00 | |
| PETON7-10 | 2026-09-02 12:42:47 | 47.44722 | 19.90342 | 146° | 18km/h | 29853m | 6.0m/s | -41.5°C | 2.0% | 13.5hPa | 2.7V | 00:00:00 | 00:00:00 | 00:00:00 | |
| OE5DXL-15 | 2026-09-02 12:42:46 | 47.44727 | 19.90337 | 145° | 24km/h | 29846m | 7.0m/s | -41.5°C | 2.0% | 13.5hPa | 2.7V | 00:00:00 | 00:00:00 | 00:00:00 | |
| SP9KGR-15 | 2026-09-02 12:42:44 | 47.44731 | 19.90332 | 137° | 22km/h | 29839m | 8.1m/s | -41.6°C | 0.3% | 13.6hPa | 2.7V | 00:00:00 | 00:00:00 | 00:00:00 | |
| OE5DRO-10 | 2026-09-02 12:42:42 | 47.44740 | 19.90310 | 106° | 22km/h | 29817m | 6.7m/s | -41.7°C | 2.1% | 13.6hPa | 2.7V | 00:00:00 | 00:00:00 | 00:00:00 | |
| PETON7-10 | 2026-09-02 12:42:31 | 47.44739 | 19.90257 | 123° | 27km/h | 29731m | 5.0m/s | -41.8°C | 2.0% | 13.7hPa | 2.7V | 00:00:00 | 01:47:22 | 00:00:00 | |
| SP9KGR-15 | 2026-09-02 12:42:28 | 47.44749 | 19.90233 | 120° | 37km/h | 29718m | 8.6m/s | -41.8°C | 0.3% | 13.8hPa | 2.7V | 00:00:00 | 00:00:00 | 00:00:00 | |
| OE5DRO-10 | 2026-09-02 12:42:23 | 47.44750 | 19.90184 | 63° | 31km/h | 29671m | 5.0m/s | -41.8°C | 2.0% | 13.8hPa | 2.7V | 00:00:00 | 00:00:00 | 00:00:00 | |
| PETON7-10 | 2026-09-02 12:42:16 | 47.44765 | 19.90114 | 123° | 35km/h | 29620m | 6.0m/s | -41.9°C | 2.1% | 13.9hPa | 2.6V | 00:00:00 | 00:00:00 | 08:30:00 | |
| SP9KGR-15 | 2026-09-02 12:42:12 | 47.44779 | 19.90081 | 113° | 27km/h | 29599m | 6.2m/s | -42.0°C | 0.3% | 14.0hPa | 2.7V | 00:00:00 | 00:00:00 | 00:00:00 | |
| OE5DRO-10 | 2026-09-02 12:42:04 | 47.44775 | 19.89979 | 100° | 31km/h | 29532m | 7.4m/s | -41.9°C | 2.1% | 14.1hPa | 2.7V | 00:00:00 | 00:00:00 | 00:00:00 | |
| PETON7-10 | 2026-09-02 12:42:01 | 47.44782 | 19.89934 | 109° | 29km/h | 29510m | 6.9m/s | -42.0°C | 2.1% | 14.2hPa | 2.7V | 00:00:00 | 00:00:00 | 00:00:00 | |
| SP9KGR-15 | 2026-09-02 12:41:56 | 47.44782 | 19.89895 | 67° | 27km/h | 29483m | 6.9m/s | -42.1°C | 0.3% | 14.3hPa | 2.7V | 00:00:00 | 00:00:00 | 00:00:00 | |
| GYPAP8-17 | 2026-09-02 12:41:52 | 47.44771 | 19.89863 | 77° | 22km/h | 29456m | 6.2m/s | -42.0°C | 0.3% | 14.3hPa | 2.7V | 00:00:00 | 00:00:00 | 00:00:00 | |
| PETON7-10 | 2026-09-02 12:41:46 | 47.44769 | 19.89783 | 91° | 24km/h | 29408m | 6.5m/s | -41.7°C | 2.0% | 14.4hPa | 2.7V | 00:00:00 | 01:46:37 | 00:00:00 | |
| OE5DRO-10 | 2026-09-02 12:41:45 | 47.44768 | 19.89775 | 83° | 22km/h | 29401m | 6.0m/s | -41.7°C | 2.1% | 14.4hPa | 2.7V | 00:00:00 | 00:00:00 | 00:00:00 | |
| SP9KGR-15 | 2026-09-02 12:41:41 | 47.44762 | 19.89754 | 58° | 27km/h | 29380m | 7.0m/s | -41.8°C | 0.3% | 14.5hPa | 2.7V | 00:00:00 | 00:00:00 | 00:00:00 | |
| PETON7-10 | 2026-09-02 12:41:31 | 47.44735 | 19.89674 | 49° | 16km/h | 29304m | 7.4m/s | -42.3°C | 2.1% | 14.6hPa | 2.7V | 00:00:00 | 00:00:00 | 00:00:00 | |
| OE5DRO-10 | 2026-09-02 12:41:26 | 47.44707 | 19.89650 | 27° | 13km/h | 29270m | 5.7m/s | -42.3°C | 2.1% | 14.7hPa | 2.7V | 00:00:00 | 00:00:00 | 00:00:00 | |
| SP9KGR-15 | 2026-09-02 12:41:25 | 47.44707 | 19.89650 | 28° | 27km/h | 29270m | 5.7m/s | -42.3°C | 0.3% | 14.7hPa | 2.6V | 00:00:00 | 00:00:00 | 00:00:00 | |
| PETON7-10 | 2026-09-02 12:41:16 | 47.44688 | 19.89620 | 26° | 11km/h | 29204m | 5.6m/s | -42.3°C | 2.1% | 14.8hPa | 2.6V | 00:00:00 | 00:00:00 | 00:00:00 | |
| OE5DXL-15 | 2026-09-02 12:41:15 | 47.44686 | 19.89619 | 37° | 11km/h | 29198m | 5.8m/s | -42.3°C | 2.1% | 14.8hPa | 2.6V | 00:00:00 | 00:00:00 | 00:00:00 | |
| SP9KGR-15 | 2026-09-02 12:41:09 | 47.44669 | 19.89603 | 5° | 15km/h | 29164m | 7.6m/s | -42.4°C | 0.3% | 14.9hPa | 2.6V | 00:00:00 | 00:00:00 | 00:00:00 | |
| OE5DRO-10 | 2026-09-02 12:41:07 | 47.44660 | 19.89602 | 27° | 9km/h | 29144m | 7.7m/s | -42.3°C | 2.2% | 14.9hPa | 2.6V | 00:00:00 | 00:00:00 | 00:00:00 | |
| PETON7-10 | 2026-09-02 12:41:01 | 47.44660 | 19.89586 | 124° | 9km/h | 29104m | 5.7m/s | -42.2°C | 2.1% | 15.0hPa | 2.6V | 00:00:00 | 01:45:52 | 00:00:00 | |
| SP9KGR-15 | 2026-09-02 12:40:55 | 47.44658 | 19.89560 | 49° | 4km/h | 29063m | 5.5m/s | -42.0°C | 0.3% | 15.2hPa | 2.6V | 00:00:00 | 00:00:00 | 00:00:00 | |
| GYPAP8-17 | 2026-09-02 12:40:51 | 47.44657 | 19.89555 | 89° | 9km/h | 29046m | 7.9m/s | -41.9°C | 0.3% | 15.2hPa | 2.6V | 00:00:00 | 00:00:00 | 00:00:00 | |
| OE5DRO-10 | 2026-09-02 12:40:48 | 47.44656 | 19.89541 | 72° | 16km/h | 29018m | 6.4m/s | -41.8°C | 2.0% | 15.2hPa | 2.6V | 00:00:00 | 00:00:00 | 00:00:00 | |
| PETON7-10 | 2026-09-02 12:40:46 | 47.44655 | 19.89534 | 88° | 16km/h | 29005m | 6.8m/s | -41.8°C | 2.1% | 15.2hPa | 2.6V | 00:00:00 | 00:00:00 | 00:00:00 | |
| OE5DXL-15 | 2026-09-02 12:40:44 | 47.44655 | 19.89521 | 99° | 16km/h | 28991m | 6.2m/s | -41.7°C | 2.0% | 15.3hPa | 2.7V | 00:00:00 | 00:00:00 | 00:00:00 | |
| SP9KGR-15 | 2026-09-02 12:40:38 | 47.44656 | 19.89492 | 80° | 16km/h | 28960m | 7.0m/s | -41.8°C | 0.3% | 15.4hPa | 2.7V | 00:00:00 | 00:00:00 | 00:00:00 | |
| PETON7-10 | 2026-09-02 12:40:31 | 47.44658 | 19.89445 | 98° | 16km/h | 28905m | 4.7m/s | -41.8°C | 2.0% | 15.5hPa | 2.7V | 00:00:00 | 00:00:00 | 00:00:00 | |
| OE5DRO-10 | 2026-09-02 12:40:29 | 47.44659 | 19.89432 | 104° | 13km/h | 28895m | 7.7m/s | -42.0°C | 2.1% | 15.5hPa | 2.7V | 00:00:00 | 00:00:00 | 08:30:00 | |
| SP9KGR-15 | 2026-09-02 12:40:21 | 47.44667 | 19.89388 | 99° | 18km/h | 28846m | 8.5m/s | -42.5°C | 0.3% | 15.6hPa | 2.6V | 00:00:00 | 00:00:00 | 00:00:00 | |
| PETON7-10 | 2026-09-02 12:40:16 | 47.44670 | 19.89357 | 92° | 13km/h | 28805m | 7.2m/s | -42.6°C | 2.1% | 15.7hPa | 2.6V | 00:00:00 | 01:45:07 | 00:00:00 | |
| OE5DRO-10 | 2026-09-02 12:40:10 | 47.44667 | 19.89343 | 77° | 16km/h | 28763m | 6.0m/s | -42.9°C | 2.1% | 15.8hPa | 2.6V | 00:00:00 | 00:00:00 | 00:00:00 | |
| SP9KGR-15 | 2026-09-02 12:40:05 | 47.44663 | 19.89325 | 84° | 18km/h | 28736m | 8.4m/s | -43.0°C | 0.3% | 15.9hPa | 2.6V | 00:00:00 | 00:00:00 | 00:00:00 | |
| PETON7-10 | 2026-09-02 12:40:01 | 47.44668 | 19.89290 | 131° | 16km/h | 28700m | 3.8m/s | -43.0°C | 2.1% | 15.9hPa | 2.6V | 00:00:00 | 00:00:00 | 08:30:00 | |
| OE5DRO-10 | 2026-09-02 12:39:52 | 47.44681 | 19.89240 | 80° | 15km/h | 28631m | 4.5m/s | -43.5°C | 2.2% | 16.1hPa | 2.7V | 00:00:00 | 00:00:00 | 00:00:00 | |
| SP9KGR-15 | 2026-09-02 12:39:50 | 47.44681 | 19.89240 | 80° | 22km/h | 28631m | 4.5m/s | -43.6°C | 0.3% | 16.1hPa | 2.7V | 00:00:00 | 00:00:00 | 00:00:00 | |
| GYPAP8-17 | 2026-09-02 12:39:48 | 47.44678 | 19.89226 | 75° | 16km/h | 28619m | 8.3m/s | -43.7°C | 0.3% | 16.2hPa | 2.7V | 00:00:00 | 00:00:00 | 00:00:00 | |
| PETON7-10 | 2026-09-02 12:39:46 | 47.44675 | 19.89212 | 78° | 16km/h | 28598m | 7.8m/s | -43.7°C | 2.2% | 16.2hPa | 2.7V | 00:00:00 | 00:00:00 | 00:00:00 | |
| OE5DXL-15 | 2026-09-02 12:39:45 | 47.44675 | 19.89208 | 88° | 15km/h | 28591m | 6.1m/s | -43.8°C | 2.2% | 16.2hPa | 2.7V | 00:00:00 | 00:00:00 | 08:30:00 | |
| SP9KGR-15 | 2026-09-02 12:39:34 | 47.44686 | 19.89160 | 69° | 15km/h | 28522m | 5.6m/s | -44.0°C | 0.4% | 16.4hPa | 2.7V | 00:00:00 | 00:00:00 | 00:00:00 | |
| OE5DRO-10 | 2026-09-02 12:39:32 | 47.44679 | 19.89144 | 57° | 15km/h | 28503m | 7.3m/s | -44.0°C | 2.2% | 16.4hPa | 2.7V | 00:00:00 | 00:00:00 | 00:00:00 | |
| PETON7-10 | 2026-09-02 12:39:30 | 47.44674 | 19.89132 | 57° | 13km/h | 28490m | 8.0m/s | -44.1°C | 2.3% | 16.4hPa | 2.7V | 00:00:00 | 01:44:21 | 00:00:00 | |
| SP9KGR-15 | 2026-09-02 12:39:21 | 47.44672 | 19.89089 | 44° | 11km/h | 28423m | 6.4m/s | -44.5°C | 0.4% | 16.6hPa | 2.7V | 00:00:00 | 00:00:00 | 00:00:00 | |
| PETON7-10 | 2026-09-02 12:39:15 | 47.44669 | 19.89068 | 97° | 16km/h | 28388m | 7.0m/s | -44.5°C | 2.3% | 16.7hPa | 2.7V | 00:00:00 | 00:00:00 | 00:00:00 | |
| OE5DRO-10 | 2026-09-02 12:39:13 | 47.44669 | 19.89058 | 91° | 16km/h | 28376m | 7.2m/s | -44.6°C | 2.3% | 16.7hPa | 2.7V | 00:00:00 | 00:00:00 | 00:00:00 | |
| SP9KGR-15 | 2026-09-02 12:39:03 | 47.44663 | 19.88998 | 61° | 16km/h | 28313m | 5.2m/s | -44.8°C | 0.4% | 16.9hPa | 2.7V | 00:00:00 | 00:00:00 | 00:00:00 | |
| PETON7-10 | 2026-09-02 12:39:00 | 47.44653 | 19.88985 | 47° | 18km/h | 28286m | 7.0m/s | -44.8°C | 2.3% | 16.9hPa | 2.7V | 00:00:00 | 00:00:00 | 00:00:00 | |
| OE5DRO-10 | 2026-09-02 12:38:54 | 47.44641 | 19.88951 | 70° | 18km/h | 28246m | 5.0m/s | -44.8°C | 2.4% | 17.0hPa | 2.7V | 00:00:00 | 00:00:00 | 00:00:00 | |
| SP9KGR-15 | 2026-09-02 12:38:48 | 47.44632 | 19.88912 | 66° | 16km/h | 28203m | 5.7m/s | -44.9°C | 0.3% | 17.2hPa | 2.7V | 00:00:00 | 00:00:00 | 00:00:00 | |
| PETON7-10 | 2026-09-02 12:38:45 | 47.44627 | 19.88890 | 80° | 18km/h | 28182m | 5.4m/s | -45.0°C | 2.4% | 17.2hPa | 2.7V | 00:00:00 | 01:43:36 | 00:00:00 | |
| GYPAP8-17 | 2026-09-02 12:38:43 | 47.44626 | 19.88883 | 83° | 20km/h | 28176m | 6.0m/s | -45.1°C | 0.4% | 17.2hPa | 2.7V | 00:00:00 | 00:00:00 | 00:00:00 | |
| OE5DRO-10 | 2026-09-02 12:38:35 | 47.44612 | 19.88832 | 41° | 18km/h | 28117m | 7.5m/s | 0°C | 0% | 0hPa | 2.7V | 00:00:00 | 00:00:00 | 00:00:00 | |
| SP9KGR-15 | 2026-09-02 12:38:31 | 47.44597 | 19.88819 | 33° | 26km/h | 28097m | 7.7m/s | -45.1°C | 0.4% | 17.4hPa | 2.7V | 00:00:00 | 00:00:00 | 00:00:00 | |
| PETON7-10 | 2026-09-02 12:38:30 | 47.44588 | 19.88808 | 43° | 16km/h | 28084m | 4.3m/s | -45.1°C | 2.4% | 17.4hPa | 2.7V | 00:00:00 | 00:00:00 | 00:00:00 | |
| OE5DRO-10 | 2026-09-02 12:38:16 | 47.44532 | 19.88773 | 21° | 18km/h | 27989m | 6.3m/s | 0°C | 0% | 0hPa | 2.6V | 00:00:00 | 00:00:00 | 00:00:00 | |
| PETON7-10 | 2026-09-02 12:38:15 | 47.44528 | 19.88772 | 9° | 18km/h | 27982m | 7.1m/s | -45.4°C | 2.4% | 17.7hPa | 2.6V | 00:00:00 | 00:00:00 | 00:00:00 | |
| OE5DXL-15 | 2026-09-02 12:38:14 | 47.44523 | 19.88771 | 2° | 15km/h | 27976m | 6.2m/s | -45.4°C | 2.4% | 17.7hPa | 2.6V | 00:00:00 | 00:00:00 | 00:00:00 | |
| PETON7-10 | 2026-09-02 12:38:00 | 47.44460 | 19.88756 | 340° | 11km/h | 27883m | 3.4m/s | -45.5°C | 2.4% | 18.0hPa | 2.6V | 00:00:00 | 01:42:51 | 00:00:00 | |
| OE5DRO-10 | 2026-09-02 12:37:57 | 47.44452 | 19.88756 | 30° | 11km/h | 27864m | 5.7m/s | 0°C | 0% | 0hPa | 2.6V | 00:00:00 | 00:00:00 | 00:00:00 | |
| PETON7-10 | 2026-09-02 12:37:45 | 47.44423 | 19.88751 | 74° | 13km/h | 27783m | 9.2m/s | -45.8°C | 2.4% | 18.2hPa | 2.6V | 00:00:00 | 00:00:00 | 08:30:00 | |
| OE5DXL-15 | 2026-09-02 12:37:44 | 47.44421 | 19.88748 | 49° | 11km/h | 27776m | 3.9m/s | 0°C | 0% | 0hPa | 2.6V | 00:00:00 | 00:00:00 | 00:00:00 | |
| OE5DRO-10 | 2026-09-02 12:37:38 | 47.44399 | 19.88754 | 346° | 11km/h | 27734m | 8.7m/s | 0°C | 0% | 0hPa | 2.6V | 00:00:00 | 00:00:00 | 08:30:00 | |
| PETON7-10 | 2026-09-02 12:37:30 | 47.44384 | 19.88770 | 34° | 9km/h | 27680m | 3.4m/s | -46.0°C | 2.5% | 18.5hPa | 2.6V | 00:00:00 | 00:00:00 | 00:00:00 | |
| PETON7-10 | 2026-09-02 12:37:16 | 47.44376 | 19.88776 | 134° | 7km/h | 27576m | 8.7m/s | -46.4°C | 2.6% | 18.8hPa | 2.6V | 00:00:00 | 01:42:06 | 00:00:00 | |
| SP9KGR-15 | 2026-09-02 12:37:15 | 47.44376 | 19.88776 | 135° | 11km/h | 27576m | 8.8m/s | -46.4°C | 0.4% | 18.8hPa | 2.6V | 00:00:00 | 00:00:00 | 00:00:00 | |
| PETON7-10 | 2026-09-02 12:37:00 | 47.44363 | 19.88770 | 59° | 9km/h | 27474m | 6.1m/s | -46.5°C | 2.6% | 19.1hPa | 2.6V | 00:00:00 | 00:00:00 | 00:00:00 | |
| SP9KGR-15 | 2026-09-02 12:36:59 | 47.44362 | 19.88770 | 59° | 7km/h | 27474m | 6.1m/s | -46.5°C | 0.4% | 19.1hPa | 2.7V | 00:00:00 | 00:00:00 | 00:00:00 | |
| OE5DXL-15 | 2026-09-02 12:36:45 | 47.44330 | 19.88757 | 37° | 11km/h | 27361m | 7.8m/s | 0°C | 0% | 0hPa | 2.7V | 00:00:00 | 00:00:00 | 00:00:00 | |
| SP9KGR-15 | 2026-09-02 12:36:44 | 47.44329 | 19.88757 | 38° | 16km/h | 27361m | 7.8m/s | -46.5°C | 0.4% | 19.4hPa | 2.7V | 00:00:00 | 00:00:00 | 00:00:00 | |
| GYPAP8-17 | 2026-09-02 12:36:35 | 47.44309 | 19.88753 | 278° | 15km/h | 27306m | 6.0m/s | -46.8°C | 0.4% | 19.6hPa | 2.7V | 00:00:00 | 00:00:00 | 00:00:00 | |
| PETON7-10 | 2026-09-02 12:36:30 | 47.44298 | 19.88778 | 318° | 9km/h | 27266m | 7.3m/s | -46.9°C | 2.6% | 19.6hPa | 2.7V | 00:00:00 | 01:41:21 | 00:00:00 | |
| SP9KGR-15 | 2026-09-02 12:36:27 | 47.44295 | 19.88781 | 347° | 7km/h | 27254m | 5.9m/s | -47.0°C | 0.4% | 19.8hPa | 2.7V | 00:00:00 | 00:00:00 | 00:00:00 | |
| OE5DRO-10 | 2026-09-02 12:36:19 | 47.44282 | 19.88806 | 310° | 11km/h | 27195m | 5.3m/s | 0°C | 0% | 0hPa | 2.7V | 00:00:00 | 00:00:00 | 00:00:00 | |
| OE3JTB-15 | 2026-09-02 12:36:17 | 47.44286 | 19.88806 | 154° | 51km/h | 27168m | 5.2m/s | -47.2°C | 2.7% | 20.0hPa | 2.7V | 00:00:00 | 00:00:00 | 08:30:00 | |
| PETON7-10 | 2026-09-02 12:36:15 | 47.44286 | 19.88806 | 154° | 13km/h | 27168m | 5.2m/s | -47.2°C | 2.7% | 20.0hPa | 2.7V | 00:00:00 | 00:00:00 | 00:00:00 | |
| SP9KGR-15 | 2026-09-02 12:36:13 | 47.44292 | 19.88800 | 132° | 13km/h | 27156m | 8.6m/s | -47.2°C | 0.4% | 20.0hPa | 2.7V | 00:00:00 | 00:00:00 | 00:00:00 | |
| PETON7-10 | 2026-09-02 12:36:00 | 47.44312 | 19.88814 | 138° | 16km/h | 27066m | 5.8m/s | -47.0°C | 2.7% | 20.3hPa | 2.7V | 00:00:00 | 00:00:00 | 00:00:00 | |
| SP9KGR-15 | 2026-09-02 12:35:56 | 47.44322 | 19.88798 | 139° | 24km/h | 27045m | 6.8m/s | -47.1°C | 0.4% | 20.4hPa | 2.7V | 00:00:00 | 00:00:00 | 00:00:00 | |
| PETON7-10 | 2026-09-02 12:35:45 | 47.44360 | 19.88809 | 156° | 13km/h | 26962m | 8.3m/s | -47.0°C | 2.6% | 20.6hPa | 2.7V | 00:00:00 | 01:40:36 | 00:00:00 | |
| SP9KGR-15 | 2026-09-02 12:35:40 | 47.44377 | 19.88787 | 123° | 20km/h | 26935m | 6.4m/s | -46.9°C | 0.4% | 20.7hPa | 2.7V | 00:00:00 | 00:00:00 | 00:00:00 | |
| GYPAP8-17 | 2026-09-02 12:35:34 | 47.44384 | 19.88783 | 322° | 7km/h | 26888m | 9.0m/s | -47.0°C | 0.4% | 20.8hPa | 2.7V | 00:00:00 | 00:00:00 | 00:00:00 | |
| PETON7-10 | 2026-09-02 12:35:30 | 47.44382 | 19.88778 | 115° | 18km/h | 26853m | 5.3m/s | -47.1°C | 2.6% | 20.9hPa | 2.7V | 00:00:00 | 00:00:00 | 08:30:00 | |
| SP9KGR-15 | 2026-09-02 12:35:24 | 47.44382 | 19.88746 | 84° | 18km/h | 26817m | 6.6m/s | -47.2°C | 0.4% | 21.1hPa | 2.7V | 00:00:00 | 00:00:00 | 00:00:00 | |
| OE5DRO-10 | 2026-09-02 12:35:16 | 47.44350 | 19.88726 | 16° | 11km/h | 26755m | 6.1m/s | 0°C | 0% | 0hPa | 2.7V | 00:00:00 | 00:00:00 | 00:00:00 | |
| PETON7-10 | 2026-09-02 12:35:15 | 47.44345 | 19.88723 | 30° | 13km/h | 26749m | 5.0m/s | -47.1°C | 2.7% | 21.2hPa | 2.7V | 00:00:00 | 00:00:00 | 00:00:00 | |
| SP9KGR-15 | 2026-09-02 12:35:10 | 47.44338 | 19.88699 | 85° | 16km/h | 26715m | 6.1m/s | -47.1°C | 0.4% | 21.4hPa | 2.7V | 00:00:00 | 00:00:00 | 00:00:00 | |
| PETON7-10 | 2026-09-02 12:35:00 | 47.44323 | 19.88691 | 31° | 7km/h | 26653m | 6.2m/s | -47.1°C | 2.7% | 21.5hPa | 2.7V | 00:00:00 | 01:39:51 | 00:00:00 | |
| OE5DRO-10 | 2026-09-02 12:34:53 | 47.44328 | 19.88676 | 164° | 9km/h | 26607m | 5.1m/s | 0°C | 0% | 0hPa | 2.7V | 00:00:00 | 00:00:00 | 00:00:00 | |
| PETON7-10 | 2026-09-02 12:34:45 | 47.44315 | 19.88677 | 46° | 9km/h | 26556m | 7.6m/s | -47.0°C | 2.6% | 21.9hPa | 2.7V | 00:00:00 | 00:00:00 | 00:00:00 | |
| SP9KGR-15 | 2026-09-02 12:34:38 | 47.44309 | 19.88659 | 341° | 4km/h | 26511m | 7.3m/s | -47.1°C | 0.4% | 22.0hPa | 2.7V | 00:00:00 | 00:00:00 | 00:00:00 | |
| OE5DRO-10 | 2026-09-02 12:34:34 | 47.44303 | 19.88665 | 317° | 9km/h | 26484m | 6.4m/s | 0°C | 0% | 0hPa | 2.7V | 00:00:00 | 00:00:00 | 00:00:00 | |
| PETON7-10 | 2026-09-02 12:34:30 | 47.44289 | 19.88669 | 2° | 9km/h | 26457m | 5.0m/s | -47.0°C | 2.6% | 22.2hPa | 2.7V | 00:00:00 | 00:00:00 | 00:00:00 | |
| SP9KGR-15 | 2026-09-02 12:34:22 | 47.44277 | 19.88666 | 357° | 9km/h | 26412m | 5.5m/s | -47.3°C | 0.4% | 22.4hPa | 2.7V | 00:00:00 | 00:00:00 | 00:00:00 | |
| PETON7-10 | 2026-09-02 12:34:15 | 47.44258 | 19.88679 | 44° | 7km/h | 26358m | 4.6m/s | -47.6°C | 2.7% | 22.5hPa | 2.7V | 00:00:00 | 01:39:06 | 00:00:00 | |
| SP9KGR-15 | 2026-09-02 12:34:08 | 47.44263 | 19.88681 | 231° | 9km/h | 26309m | 8.1m/s | -48.0°C | 0.5% | 22.7hPa | 2.7V | 00:00:00 | 00:00:00 | 00:00:00 | |
| PETON7-10 | 2026-09-02 12:34:00 | 47.44267 | 19.88707 | 182° | 11km/h | 26253m | 7.4m/s | -48.0°C | 2.7% | 22.8hPa | 2.7V | 00:00:00 | 00:00:00 | 00:00:00 | |
| OE5DRO-10 | 2026-09-02 12:33:55 | 47.44284 | 19.88699 | 171° | 11km/h | 26220m | 5.9m/s | 0°C | 0% | 0hPa | 2.7V | 00:00:00 | 00:00:00 | 00:00:00 | |
| SP9KGR-15 | 2026-09-02 12:33:51 | 47.44293 | 19.88700 | 225° | 9km/h | 26200m | 4.9m/s | -48.3°C | 0.5% | 23.1hPa | 2.7V | 00:00:00 | 00:00:00 | 00:00:00 | |
| PETON7-10 | 2026-09-02 12:33:44 | 47.44293 | 19.88704 | 28° | 5km/h | 26146m | 9.3m/s | -48.5°C | 2.8% | 23.2hPa | 2.7V | 00:00:00 | 00:00:00 | 00:00:00 | |
| SP9KGR-15 | 2026-09-02 12:33:36 | 47.44306 | 19.88692 | 150° | 9km/h | 26091m | 6.3m/s | -48.6°C | 0.5% | 23.5hPa | 2.7V | 00:00:00 | 00:00:00 | 00:00:00 | |
| PETON7-10 | 2026-09-02 12:33:29 | 47.44307 | 19.88690 | 341° | 9km/h | 26043m | 7.5m/s | -48.4°C | 2.8% | 23.6hPa | 2.7V | 00:00:00 | 01:38:20 | 00:00:00 | |
| SP9KGR-15 | 2026-09-02 12:33:19 | 47.44325 | 19.88676 | 152° | 9km/h | 25983m | 8.1m/s | -48.4°C | 0.5% | 23.9hPa | 2.7V | 00:00:00 | 00:00:00 | 00:00:00 | |
| PETON7-10 | 2026-09-02 12:33:14 | 47.44331 | 19.88660 | 136° | 11km/h | 25943m | 9.4m/s | -48.3°C | 2.7% | 23.9hPa | 2.7V | 00:00:00 | 00:00:00 | 08:30:00 | |
| SP9KGR-15 | 2026-09-02 12:33:04 | 47.44349 | 19.88632 | 90° | 11km/h | 25883m | 7.7m/s | -48.7°C | 0.5% | 24.2hPa | 2.7V | 00:00:00 | 00:00:00 | 00:00:00 | |
| PETON7-10 | 2026-09-02 12:32:59 | 47.44349 | 19.88609 | 110° | 9km/h | 25842m | 7.8m/s | -48.8°C | 2.8% | 24.3hPa | 2.7V | 00:00:00 | 00:00:00 | 00:00:00 | |
| SP9KGR-15 | 2026-09-02 12:32:49 | 47.44364 | 19.88574 | 93° | 9km/h | 25784m | 7.7m/s | -48.9°C | 0.5% | 24.6hPa | 2.7V | 00:00:00 | 00:00:00 | 00:00:00 | |
| PETON7-10 | 2026-09-02 12:32:44 | 47.44364 | 19.88561 | 101° | 7km/h | 25742m | 8.2m/s | -48.9°C | 2.9% | 24.7hPa | 2.7V | 00:00:00 | 01:37:35 | 00:00:00 | |
| GYPAP8-17 | 2026-09-02 12:32:40 | 47.44366 | 19.88553 | 82° | 7km/h | 25724m | 7.8m/s | -49.0°C | 0.5% | 24.8hPa | 2.7V | 00:00:00 | 00:00:00 | 00:00:00 | |
| SP9KGR-15 | 2026-09-02 12:32:33 | 47.44354 | 19.88552 | 350° | 11km/h | 25676m | 7.3m/s | -48.9°C | 0.5% | 25.0hPa | 2.7V | 00:00:00 | 00:00:00 | 00:00:00 | |
| PETON7-10 | 2026-09-02 12:32:29 | 47.44347 | 19.88549 | 67° | 4km/h | 25642m | 7.8m/s | -49.0°C | 2.8% | 25.0hPa | 2.7V | 00:00:00 | 00:00:00 | 00:00:00 | |
| SP9KGR-15 | 2026-09-02 12:32:17 | 47.44342 | 19.88545 | 258° | 4km/h | 25570m | 5.5m/s | -49.2°C | 0.5% | 25.4hPa | 2.6V | 00:00:00 | 00:00:00 | 00:00:00 | |
| PETON7-10 | 2026-09-02 12:32:14 | 47.44343 | 19.88543 | 128° | 9km/h | 25545m | 4.7m/s | -49.2°C | 2.9% | 25.4hPa | 2.6V | 00:00:00 | 00:00:00 | 00:00:00 | |
| SP9KGR-15 | 2026-09-02 12:32:01 | 47.44348 | 19.88552 | 327° | 9km/h | 25467m | 5.9m/s | -49.6°C | 0.5% | 25.8hPa | 2.6V | 00:00:00 | 00:00:00 | 00:00:00 | |
| PETON7-10 | 2026-09-02 12:31:59 | 47.44347 | 19.88551 | 139° | 11km/h | 25447m | 6.7m/s | -49.6°C | 3.0% | 25.8hPa | 2.6V | 00:00:00 | 01:36:50 | 00:00:00 | |
| SP9KGR-15 | 2026-09-02 12:31:46 | 47.44346 | 19.88506 | 64° | 5km/h | 25365m | 4.5m/s | -49.7°C | 0.5% | 26.2hPa | 2.6V | 00:00:00 | 00:00:00 | 00:00:00 | |
| PETON7-10 | 2026-09-02 12:31:44 | 47.44344 | 19.88499 | 78° | 13km/h | 25351m | 8.4m/s | -49.7°C | 3.0% | 26.2hPa | 2.6V | 00:00:00 | 00:00:00 | 00:00:00 | |
| GYPAP8-17 | 2026-09-02 12:31:39 | 47.44341 | 19.88480 | 75° | 7km/h | 25324m | 5.2m/s | -49.7°C | 0.5% | 26.3hPa | 2.7V | 00:00:00 | 00:00:00 | 00:00:00 | |
| SP9KGR-15 | 2026-09-02 12:31:30 | 47.44336 | 19.88449 | 80° | 20km/h | 25263m | 4.8m/s | -49.8°C | 0.5% | 26.6hPa | 2.7V | 00:00:00 | 00:00:00 | 00:00:00 | |
| PETON7-10 | 2026-09-02 12:31:29 | 47.44334 | 19.88434 | 81° | 22km/h | 25249m | 6.5m/s | -49.7°C | 3.0% | 26.6hPa | 2.7V | 00:00:00 | 00:00:00 | 00:00:00 | |
| OE5DRO-10 | 2026-09-02 12:31:19 | 47.44328 | 19.88353 | 68° | 15km/h | 25185m | 5.1m/s | 0°C | 0% | 0hPa | 2.7V | 00:00:00 | 00:00:00 | 00:00:00 | |
| SP9KGR-15 | 2026-09-02 12:31:14 | 47.44314 | 19.88324 | 54° | 20km/h | 25151m | 4.9m/s | -49.7°C | 0.5% | 27.0hPa | 2.7V | 00:00:00 | 00:00:00 | 00:00:00 | |
| PETON7-10 | 2026-09-02 12:30:59 | 47.44286 | 19.88258 | 27° | 7km/h | 25052m | 6.2m/s | -50.1°C | 2.9% | 27.4hPa | 2.7V | 00:00:00 | 00:00:00 | 08:30:00 | |
| SP9KGR-15 | 2026-09-02 12:30:57 | 47.44282 | 19.88256 | 32° | 13km/h | 25046m | 5.6m/s | -50.2°C | 0.5% | 27.4hPa | 2.7V | 00:00:00 | 00:00:00 | 00:00:00 | |
| PETON7-10 | 2026-09-02 12:30:44 | 47.44274 | 19.88227 | 103° | 13km/h | 24955m | 5.6m/s | -50.5°C | 3.0% | 27.8hPa | 2.7V | 00:00:00 | 00:00:00 | 00:00:00 | |
| SP9KGR-15 | 2026-09-02 12:30:42 | 47.44274 | 19.88227 | 181° | 2km/h | 24948m | 7.2m/s | -50.5°C | 0.5% | 27.9hPa | 2.7V | 00:00:00 | 00:00:00 | 00:00:00 | |
| OE5DRO-10 | 2026-09-02 12:30:36 | 47.44277 | 19.88211 | 69° | 13km/h | 24900m | 6.1m/s | 0°C | 0% | 0hPa | 2.7V | 00:00:00 | 00:00:00 | 00:00:00 | |
| PETON7-10 | 2026-09-02 12:30:29 | 47.44262 | 19.88167 | 83° | 18km/h | 24854m | 5.5m/s | -50.9°C | 3.1% | 28.2hPa | 2.7V | 00:00:00 | 01:35:20 | 00:00:00 | |
| SP9KGR-15 | 2026-09-02 12:30:25 | 47.44263 | 19.88150 | 100° | 15km/h | 24834m | 5.3m/s | -51.0°C | 0.6% | 28.3hPa | 2.7V | 00:00:00 | 00:00:00 | 00:00:00 | |
| PETON7-10 | 2026-09-02 12:30:14 | 47.44238 | 19.88084 | 81° | 9km/h | 24757m | 4.9m/s | -51.1°C | 3.1% | 28.6hPa | 2.7V | 00:00:00 | 00:00:00 | 00:00:00 | |
| SP9KGR-15 | 2026-09-02 12:30:07 | 47.44237 | 19.88080 | 50° | 11km/h | 24717m | 5.1m/s | -51.2°C | 0.6% | 28.8hPa | 2.7V | 00:00:00 | 00:00:00 | 00:00:00 | |
| PETON7-10 | 2026-09-02 12:29:59 | 47.44224 | 19.88051 | 264° | 9km/h | 24660m | 5.2m/s | -51.3°C | 3.2% | 29.0hPa | 2.7V | 00:00:00 | 00:00:00 | 00:00:00 | |
| SP9KGR-15 | 2026-09-02 12:29:50 | 47.44210 | 19.88058 | 23° | 15km/h | 24606m | 6.3m/s | -51.1°C | 0.6% | 29.3hPa | 2.7V | 00:00:00 | 00:00:00 | 00:00:00 | |
| PETON7-10 | 2026-09-02 12:29:44 | 47.44192 | 19.88042 | 43° | 9km/h | 24561m | 5.2m/s | -51.1°C | 3.2% | 29.5hPa | 2.7V | 00:00:00 | 01:34:35 | 00:00:00 | |
| OE5DRO-10 | 2026-09-02 12:29:38 | 47.44177 | 19.88046 | 344° | 11km/h | 24521m | 5.6m/s | 0°C | 0% | 0hPa | 2.7V | 00:00:00 | 00:00:00 | 00:00:00 | |
| SP9KGR-15 | 2026-09-02 12:29:35 | 47.44173 | 19.88049 | 322° | 11km/h | 24508m | 6.7m/s | -51.1°C | 0.6% | 29.8hPa | 2.7V | 00:00:00 | 00:00:00 | 00:00:00 | |
| PETON7-10 | 2026-09-02 12:29:29 | 47.44162 | 19.88049 | 348° | 13km/h | 24464m | 5.2m/s | -51.0°C | 3.1% | 29.9hPa | 2.7V | 00:00:00 | 00:00:00 | 00:00:00 | |
| SP9KGR-15 | 2026-09-02 12:29:17 | 47.44123 | 19.88047 | 4° | 11km/h | 24396m | 6.2m/s | -51.0°C | 0.6% | 30.3hPa | 2.7V | 00:00:00 | 00:00:00 | 00:00:00 | |
| PETON7-10 | 2026-09-02 12:29:14 | 47.44114 | 19.88051 | 355° | 15km/h | 24369m | 6.6m/s | -50.9°C | 3.1% | 30.3hPa | 2.7V | 00:00:00 | 00:00:00 | 00:00:00 | |
| PETON7-10 | 2026-09-02 12:28:59 | 47.44062 | 19.88048 | 317° | 11km/h | 24277m | 5.1m/s | -50.9°C | 3.1% | 30.8hPa | 2.7V | 00:00:00 | 01:33:50 | 00:00:00 | |
| SP9KGR-15 | 2026-09-02 12:28:58 | 47.44062 | 19.88048 | 318° | 9km/h | 24277m | 5.2m/s | -51.0°C | 0.6% | 30.8hPa | 2.7V | 00:00:00 | 00:00:00 | 00:00:00 | |
| GYPAP8-17 | 2026-09-02 12:28:48 | 47.44040 | 19.88048 | 336° | 13km/h | 24210m | 6.4m/s | -51.1°C | 0.6% | 31.1hPa | 2.7V | 00:00:00 | 00:00:00 | 00:00:00 | |
| PETON7-10 | 2026-09-02 12:28:44 | 47.44033 | 19.88074 | 285° | 15km/h | 24180m | 7.4m/s | -50.9°C | 3.2% | 31.3hPa | 2.7V | 00:00:00 | 00:00:00 | 08:30:00 | |
| SP9KGR-15 | 2026-09-02 12:28:42 | 47.44032 | 19.88079 | 304° | 15km/h | 24173m | 6.5m/s | -51.0°C | 0.6% | 31.3hPa | 2.7V | 00:00:00 | 00:00:00 | 00:00:00 | |
| PETON7-10 | 2026-09-02 12:28:28 | 47.44020 | 19.88151 | 246° | 13km/h | 24076m | 5.6m/s | -50.9°C | 3.1% | 31.7hPa | 2.7V | 00:00:00 | 00:00:00 | 00:00:00 | |
| SP9KGR-15 | 2026-09-02 12:28:25 | 47.44023 | 19.88163 | 260° | 15km/h | 24063m | 6.5m/s | -50.9°C | 0% | 31.8hPa | 2.7V | 00:00:00 | 00:00:00 | 00:00:00 | |
| PETON7-10 | 2026-09-02 12:28:13 | 47.44036 | 19.88212 | 231° | 9km/h | 23983m | 4.7m/s | -51.0°C | 3.1% | 32.2hPa | 2.7V | 00:00:00 | 01:33:04 | 00:00:00 | |
| SP9KGR-15 | 2026-09-02 12:28:10 | 47.44041 | 19.88219 | 218° | 18km/h | 23971m | 6.0m/s | -51.0°C | 0% | 0hPa | 2.7V | 00:00:00 | 00:00:00 | 00:00:00 | |
| PETON7-10 | 2026-09-02 12:27:58 | 47.44056 | 19.88254 | 187° | 9km/h | 23892m | 7.2m/s | -51.2°C | 3.1% | 32.6hPa | 2.7V | 00:00:00 | 00:00:00 | 00:00:00 | |
| SQ9EZE-14 | 2026-09-02 12:27:56 | 47.44061 | 19.88254 | 186° | 20km/h | 23886m | 4.7m/s | 0°C | 0% | 0hPa | 2.7V | 00:00:00 | 00:00:00 | 00:00:00 | |
| SP9KGR-15 | 2026-09-02 12:27:52 | 47.44076 | 19.88252 | 147° | 11km/h | 23864m | 6.8m/s | 0°C | 0% | 0hPa | 2.7V | 00:00:00 | 00:00:00 | 00:00:00 | |
| GYPAP8-17 | 2026-09-02 12:27:45 | 47.44071 | 19.88247 | 351° | 2km/h | 23819m | 5.3m/s | -51.6°C | 0.6% | 33.1hPa | 2.7V | 00:00:00 | 00:00:00 | 00:00:00 | |
| PETON7-10 | 2026-09-02 12:27:44 | 47.44071 | 19.88246 | 103° | 7km/h | 23802m | 5.4m/s | -51.5°C | 3.3% | 33.1hPa | 2.7V | 00:00:00 | 00:00:00 | 00:00:00 | |
| SP9KGR-15 | 2026-09-02 12:27:32 | 47.44072 | 19.88236 | 287° | 9km/h | 23740m | 6.0m/s | 0°C | 0% | 0hPa | 2.7V | 00:00:00 | 00:00:00 | 00:00:00 | |
| PETON7-10 | 2026-09-02 12:27:27 | 47.44074 | 19.88242 | 136° | 9km/h | 23703m | 5.5m/s | -51.8°C | 3.3% | 33.6hPa | 2.7V | 00:00:00 | 01:32:18 | 00:00:00 | |
| SP9KGR-15 | 2026-09-02 12:27:17 | 47.44075 | 19.88245 | 281° | 11km/h | 23650m | 5.0m/s | 0°C | 0% | 0hPa | 2.7V | 00:00:00 | 00:00:00 | 00:00:00 | |
| PETON7-10 | 2026-09-02 12:27:12 | 47.44092 | 19.88263 | 194° | 11km/h | 23612m | 5.4m/s | -51.7°C | 3.2% | 34.1hPa | 2.7V | 00:00:00 | 00:00:00 | 00:00:00 | |
| PETON7-10 | 2026-09-02 12:26:57 | 47.44123 | 19.88286 | 184° | 4km/h | 23522m | 3.6m/s | -52.0°C | 3.3% | 34.6hPa | 2.6V | 00:00:00 | 00:00:00 | 00:00:00 | |
| SP9KGR-15 | 2026-09-02 12:26:55 | 47.44125 | 19.88286 | 190° | 5km/h | 23516m | 6.9m/s | 0°C | 0% | 0hPa | 2.6V | 00:00:00 | 00:00:00 | 00:00:00 | |
| PETON7-10 | 2026-09-02 12:26:43 | 47.44130 | 19.88287 | 32° | 13km/h | 23426m | 7.1m/s | -52.2°C | 3.3% | 35.0hPa | 2.6V | 00:00:00 | 01:31:33 | 00:00:00 | |
| SP9KGR-15 | 2026-09-02 12:26:40 | 47.44130 | 19.88286 | 109° | 4km/h | 23419m | 6.0m/s | 0°C | 0% | 0hPa | 2.6V | 00:00:00 | 00:00:00 | 00:00:00 | |
| GYPAP8-17 | 2026-09-02 12:26:34 | 47.44119 | 19.88271 | 18° | 13km/h | 23382m | 6.6m/s | -52.4°C | 0.6% | 35.3hPa | 2.6V | 00:00:00 | 00:00:00 | 00:00:00 | |
| PETON7-10 | 2026-09-02 12:26:27 | 47.44094 | 19.88287 | 319° | 7km/h | 23334m | 4.8m/s | -52.3°C | 3.4% | 35.5hPa | 2.6V | 00:00:00 | 00:00:00 | 08:30:00 | |
| SP9KGR-15 | 2026-09-02 12:26:26 | 47.44093 | 19.88288 | 332° | 5km/h | 23328m | 7.4m/s | 0°C | 0% | 0hPa | 2.7V | 00:00:00 | 00:00:00 | 00:00:00 | |
| PETON7-10 | 2026-09-02 12:26:12 | 47.44074 | 19.88297 | 270° | 5km/h | 23242m | 5.8m/s | -52.3°C | 3.3% | 36.1hPa | 2.7V | 00:00:00 | 00:00:00 | 00:00:00 | |
| SP9KGR-15 | 2026-09-02 12:26:10 | 47.44075 | 19.88299 | 193° | 5km/h | 23228m | 5.9m/s | 0°C | 0% | 0hPa | 2.7V | 00:00:00 | 00:00:00 | 00:00:00 | |
| PETON7-10 | 2026-09-02 12:25:57 | 47.44094 | 19.88310 | 203° | 15km/h | 23150m | 5.9m/s | -52.4°C | 3.3% | 36.6hPa | 2.7V | 00:00:00 | 01:30:48 | 00:00:00 | |
| SP9KGR-15 | 2026-09-02 12:25:53 | 47.44100 | 19.88316 | 204° | 11km/h | 23130m | 7.4m/s | 0°C | 0% | 0hPa | 2.7V | 00:00:00 | 00:00:00 | 00:00:00 | |
| PETON7-10 | 2026-09-02 12:25:42 | 47.44147 | 19.88310 | 179° | 22km/h | 23051m | 6.2m/s | -52.6°C | 3.4% | 37.1hPa | 2.7V | 00:00:00 | 00:00:00 | 00:00:00 | |
| SP9KGR-15 | 2026-09-02 12:25:38 | 47.44164 | 19.88311 | 184° | 18km/h | 23032m | 5.4m/s | 0°C | 0% | 0hPa | 2.6V | 00:00:00 | 00:00:00 | 00:00:00 | |
| GYPAP8-17 | 2026-09-02 12:25:28 | 47.44203 | 19.88264 | 159° | 26km/h | 22969m | 6.1m/s | -52.7°C | 0.6% | 37.6hPa | 2.6V | 00:00:00 | 00:00:00 | 00:00:00 | |
| PETON7-10 | 2026-09-02 12:25:27 | 47.44215 | 19.88259 | 170° | 22km/h | 22957m | 7.1m/s | -52.6°C | 3.4% | 37.6hPa | 2.6V | 00:00:00 | 00:00:00 | 00:00:00 | |
| SP9KGR-15 | 2026-09-02 12:25:22 | 47.44235 | 19.88249 | 136° | 24km/h | 22932m | 6.0m/s | 0°C | 0% | 0hPa | 2.6V | 00:00:00 | 00:00:00 | 00:00:00 | |
| PETON7-10 | 2026-09-02 12:25:12 | 47.44271 | 19.88176 | 143° | 22km/h | 22861m | 6.5m/s | -51.9°C | 3.3% | 38.2hPa | 2.6V | 00:00:00 | 01:30:03 | 00:00:00 | |
| PETON7-10 | 2026-09-02 12:24:58 | 47.44303 | 19.88065 | 117° | 18km/h | 22768m | 5.0m/s | -52.0°C | 3.2% | 38.7hPa | 2.6V | 00:00:00 | 00:00:00 | 00:00:00 | |
| PETON7-10 | 2026-09-02 12:24:42 | 47.44312 | 19.87961 | 64° | 24km/h | 22673m | 6.3m/s | -52.2°C | 3.4% | 39.3hPa | 2.7V | 00:00:00 | 00:00:00 | 00:00:00 | |
| PETON7-10 | 2026-09-02 12:24:27 | 47.44255 | 19.87855 | 37° | 24km/h | 22579m | 5.2m/s | -52.0°C | 3.3% | 39.9hPa | 2.7V | 00:00:00 | 01:29:18 | 00:00:00 | |
| GYPAP8-17 | 2026-09-02 12:24:23 | 47.44237 | 19.87832 | 40° | 22km/h | 22554m | 7.2m/s | -52.0°C | 0.6% | 40.1hPa | 2.7V | 00:00:00 | 00:00:00 | 00:00:00 | |
| PETON7-10 | 2026-09-02 12:24:11 | 47.44187 | 19.87768 | 26° | 20km/h | 22478m | 6.0m/s | -51.8°C | 3.3% | 40.5hPa | 2.7V | 00:00:00 | 00:00:00 | 08:30:00 | |
| PETON7-10 | 2026-09-02 12:23:56 | 47.44124 | 19.87709 | 28° | 22km/h | 22385m | 5.6m/s | -51.8°C | 3.2% | 41.1hPa | 2.6V | 00:00:00 | 00:00:00 | 00:00:00 | |
| PETON7-10 | 2026-09-02 12:23:41 | 47.44045 | 19.87670 | 22° | 11km/h | 22291m | 6.4m/s | -52.5°C | 3.4% | 41.7hPa | 2.6V | 00:00:00 | 01:28:32 | 00:00:00 | |
| PETON7-10 | 2026-09-02 12:23:26 | 47.44010 | 19.87664 | 343° | 7km/h | 22198m | 6.7m/s | -52.4°C | 3.3% | 42.3hPa | 2.6V | 00:00:00 | 00:00:00 | 00:00:00 | |
| GYPAP8-17 | 2026-09-02 12:23:17 | 47.44010 | 19.87665 | 272° | 4km/h | 22150m | 6.7m/s | -52.7°C | 0.7% | 42.6hPa | 2.6V | 00:00:00 | 00:00:00 | 00:00:00 | |
| PETON7-10 | 2026-09-02 12:23:11 | 47.44013 | 19.87693 | 236° | 7km/h | 22107m | 4.5m/s | -52.5°C | 3.4% | 42.8hPa | 2.6V | 00:00:00 | 00:00:00 | 00:00:00 | |
| SQ9EZE-14 | 2026-09-02 12:23:08 | 47.44017 | 19.87701 | 228° | 13km/h | 22096m | 5.3m/s | 0°C | 0% | 0hPa | 2.6V | 00:00:00 | 00:00:00 | 00:00:00 | |
| PETON7-10 | 2026-09-02 12:22:56 | 47.44030 | 19.87718 | 305° | 5km/h | 22019m | 6.4m/s | -52.4°C | 3.3% | 43.5hPa | 2.6V | 00:00:00 | 01:27:47 | 00:00:00 | |
| PETON7-10 | 2026-09-02 12:22:41 | 47.44026 | 19.87694 | 66° | 15km/h | 21934m | 5.1m/s | -52.3°C | 3.3% | 44.0hPa | 2.6V | 00:00:00 | 00:00:00 | 00:00:00 | |
| PETON7-10 | 2026-09-02 12:22:26 | 47.44036 | 19.87616 | 85° | 11km/h | 21847m | 6.2m/s | -52.4°C | 3.4% | 44.6hPa | 2.6V | 00:00:00 | 00:00:00 | 00:00:00 | |
| PETON7-10 | 2026-09-02 12:22:11 | 47.44038 | 19.87562 | 86° | 7km/h | 21761m | 6.2m/s | -51.9°C | 3.1% | 45.2hPa | 2.6V | 00:00:00 | 01:27:02 | 00:00:00 | |
| GYPAP8-17 | 2026-09-02 12:22:00 | 47.44041 | 19.87558 | 224° | 11km/h | 21701m | 4.7m/s | -52.7°C | 0.7% | 45.7hPa | 2.6V | 00:00:00 | 00:00:00 | 00:00:00 | |
| PETON7-10 | 2026-09-02 12:21:57 | 47.44048 | 19.87558 | 99° | 5km/h | 21670m | 4.6m/s | -52.8°C | 3.4% | 45.8hPa | 2.6V | 00:00:00 | 00:00:00 | 08:30:00 | |
| PETON7-10 | 2026-09-02 12:21:41 | 47.44045 | 19.87548 | 23° | 13km/h | 21580m | 7.1m/s | -53.0°C | 3.4% | 46.4hPa | 2.6V | 00:00:00 | 00:00:00 | 00:00:00 | |
| PETON7-10 | 2026-09-02 12:21:26 | 47.44002 | 19.87558 | 11° | 16km/h | 21490m | 6.4m/s | -53.2°C | 3.5% | 47.1hPa | 2.6V | 00:00:00 | 01:26:17 | 00:00:00 | |
| PETON7-10 | 2026-09-02 12:21:11 | 47.43946 | 19.87575 | 11° | 15km/h | 21399m | 5.2m/s | -53.2°C | 3.5% | 47.8hPa | 2.6V | 00:00:00 | 00:00:00 | 00:00:00 | |
| GYPAP8-17 | 2026-09-02 12:20:57 | 47.43908 | 19.87609 | 12° | 13km/h | 21326m | 4.0m/s | -53.3°C | 0.7% | 48.4hPa | 2.6V | 00:00:00 | 00:00:00 | 00:00:00 | |
| PETON7-10 | 2026-09-02 12:20:56 | 47.43899 | 19.87608 | 356° | 11km/h | 21314m | 5.3m/s | -53.2°C | 3.6% | 48.4hPa | 2.6V | 00:00:00 | 00:00:00 | 00:00:00 | |
| SQ9EZE-14 | 2026-09-02 12:20:43 | 47.43886 | 19.87653 | 317° | 7km/h | 21239m | 6.7m/s | 0°C | 0% | 0hPa | 2.6V | 00:00:00 | 00:00:00 | 00:00:00 | |
| PETON7-10 | 2026-09-02 12:20:41 | 47.43882 | 19.87660 | 307° | 9km/h | 21221m | 6.8m/s | -52.8°C | 3.5% | 49.1hPa | 2.6V | 00:00:00 | 01:25:32 | 00:00:00 | |
| SQ9EZE-14 | 2026-09-02 12:20:28 | 47.43897 | 19.87688 | 226° | 9km/h | 21147m | 4.9m/s | 0°C | 0% | 0hPa | 2.6V | 00:00:00 | 00:00:00 | 00:00:00 | |
| PETON7-10 | 2026-09-02 12:20:26 | 47.43903 | 19.87695 | 221° | 15km/h | 21129m | 4.8m/s | -52.4°C | 3.4% | 49.8hPa | 2.6V | 00:00:00 | 00:00:00 | 00:00:00 | |
| PETON7-10 | 2026-09-02 12:20:12 | 47.43953 | 19.87675 | 157° | 16km/h | 21041m | 5.2m/s | -52.2°C | 3.3% | 50.5hPa | 2.6V | 00:00:00 | 00:00:00 | 00:00:00 | |
| GYPAP8-17 | 2026-09-02 12:19:56 | 47.43983 | 19.87600 | 113° | 13km/h | 20953m | 6.1m/s | -52.3°C | 0.6% | 51.2hPa | 2.6V | 00:00:00 | 00:00:00 | 00:00:00 | |
| PETON7-10 | 2026-09-02 12:19:40 | 47.43976 | 19.87508 | 69° | 18km/h | 20859m | 5.9m/s | -53.3°C | 3.4% | 51.9hPa | 2.6V | 00:00:00 | 00:00:00 | 08:30:00 | |
| PETON7-10 | 2026-09-02 12:19:25 | 47.43956 | 19.87418 | 65° | 18km/h | 20772m | 4.0m/s | -54.1°C | 3.6% | 52.6hPa | 2.6V | 00:00:00 | 00:00:00 | 00:00:00 | |
| PETON7-10 | 2026-09-02 12:19:10 | 47.43903 | 19.87348 | 38° | 13km/h | 20687m | 4.4m/s | -54.4°C | 3.7% | 53.3hPa | 2.6V | 00:00:00 | 01:24:01 | 00:00:00 | |
| PETON7-10 | 2026-09-02 12:18:56 | 47.43861 | 19.87318 | 17° | 9km/h | 20600m | 5.7m/s | -53.7°C | 3.6% | 54.0hPa | 2.6V | 00:00:00 | 00:00:00 | 00:00:00 | |
| GYPAP8-17 | 2026-09-02 12:18:51 | 47.43850 | 19.87309 | 24° | 15km/h | 20575m | 5.5m/s | -53.5°C | 0.7% | 54.3hPa | 2.6V | 00:00:00 | 00:00:00 | 00:00:00 | |
| PETON7-10 | 2026-09-02 12:18:40 | 47.43830 | 19.87292 | 360° | 9km/h | 20509m | 5.1m/s | -53.4°C | 3.5% | 54.8hPa | 2.6V | 00:00:00 | 00:00:00 | 00:00:00 | |
| PETON7-10 | 2026-09-02 12:18:25 | 47.43825 | 19.87256 | 75° | 11km/h | 20420m | 6.8m/s | -53.5°C | 3.5% | 55.6hPa | 2.6V | 00:00:00 | 01:23:16 | 00:00:00 | |
| PETON7-10 | 2026-09-02 12:17:55 | 47.43892 | 19.87184 | 106° | 20km/h | 20246m | 5.9m/s | -53.1°C | 3.4% | 57.1hPa | 2.6V | 00:00:00 | 00:00:00 | 00:00:00 | |
| GYPAP8-17 | 2026-09-02 12:17:46 | 47.43903 | 19.87121 | 95° | 20km/h | 20196m | 5.4m/s | -53.0°C | 0.7% | 57.5hPa | 2.6V | 00:00:00 | 00:00:00 | 00:00:00 | |
| PETON7-10 | 2026-09-02 12:17:40 | 47.43910 | 19.87083 | 136° | 18km/h | 20161m | 4.9m/s | -53.0°C | 3.3% | 57.8hPa | 2.6V | 00:00:00 | 01:22:31 | 00:00:00 | |
| PETON7-10 | 2026-09-02 12:17:25 | 47.43942 | 19.86998 | 118° | 20km/h | 20076m | 5.7m/s | -54.0°C | 3.5% | 58.6hPa | 2.6V | 00:00:00 | 00:00:00 | 08:30:00 | |
| PETON7-10 | 2026-09-02 12:17:10 | 47.43985 | 19.86895 | 98° | 20km/h | 19991m | 6.4m/s | -54.4°C | 3.5% | 59.4hPa | 2.6V | 00:00:00 | 00:00:00 | 00:00:00 | |
| PETON7-10 | 2026-09-02 12:16:55 | 47.43991 | 19.86792 | 55° | 24km/h | 19908m | 6.5m/s | -55.4°C | 3.9% | 60.1hPa | 2.6V | 00:00:00 | 01:21:46 | 00:00:00 | |
| GYPAP8-17 | 2026-09-02 12:16:42 | 47.43964 | 19.86691 | 62° | 20km/h | 19841m | 5.5m/s | -55.2°C | 0.8% | 60.8hPa | 2.6V | 00:00:00 | 00:00:00 | 00:00:00 | |
| PETON7-10 | 2026-09-02 12:16:41 | 47.43956 | 19.86675 | 49° | 15km/h | 19824m | 5.4m/s | -55.1°C | 3.8% | 60.9hPa | 2.6V | 00:00:00 | 00:00:00 | 00:00:00 | |
| PETON7-10 | 2026-09-02 12:16:25 | 47.43929 | 19.86617 | 25° | 11km/h | 19737m | 5.6m/s | -54.8°C | 3.7% | 61.8hPa | 2.6V | 00:00:00 | 00:00:00 | 00:00:00 | |
| PETON7-10 | 2026-09-02 12:16:10 | 47.43907 | 19.86579 | 76° | 4km/h | 19655m | 4.2m/s | -54.5°C | 3.7% | 62.5hPa | 2.6V | 00:00:00 | 01:21:01 | 00:00:00 | |
| PETON7-10 | 2026-09-02 12:15:55 | 47.43911 | 19.86564 | 142° | 9km/h | 19568m | 6.6m/s | -54.1°C | 3.5% | 63.4hPa | 2.6V | 00:00:00 | 00:00:00 | 00:00:00 | |
| PETON7-10 | 2026-09-02 12:15:40 | 47.43944 | 19.86536 | 135° | 24km/h | 19481m | 5.3m/s | -54.9°C | 3.7% | 64.2hPa | 2.7V | 00:00:00 | 00:00:00 | 00:00:00 | |
| GYPAP8-17 | 2026-09-02 12:15:38 | 47.43947 | 19.86531 | 127° | 18km/h | 19475m | 6.7m/s | -55.1°C | 0.8% | 64.3hPa | 2.7V | 00:00:00 | 00:00:00 | 00:00:00 | |
| PETON7-10 | 2026-09-02 12:15:25 | 47.44009 | 19.86445 | 119° | 24km/h | 19395m | 6.5m/s | -54.9°C | 3.8% | 65.1hPa | 2.7V | 00:00:00 | 01:20:16 | 00:00:00 | |
| PETON7-10 | 2026-09-02 12:15:10 | 47.44053 | 19.86331 | 105° | 24km/h | 19308m | 6.4m/s | -54.9°C | 3.8% | 66.0hPa | 2.7V | 00:00:00 | 00:00:00 | 08:30:00 | |
| PETON7-10 | 2026-09-02 12:14:55 | 47.44072 | 19.86211 | 102° | 18km/h | 19226m | 6.6m/s | -54.4°C | 3.7% | 66.8hPa | 2.7V | 00:00:00 | 00:00:00 | 00:00:00 | |
| PETON7-10 | 2026-09-02 12:14:40 | 47.44074 | 19.86114 | 99° | 16km/h | 19140m | 6.3m/s | -53.8°C | 3.6% | 67.7hPa | 2.7V | 00:00:00 | 01:19:31 | 00:00:00 | |
| PETON7-10 | 2026-09-02 12:14:25 | 47.44049 | 19.86030 | 71° | 20km/h | 19055m | 4.2m/s | -53.4°C | 3.5% | 68.6hPa | 2.7V | 00:00:00 | 00:00:00 | 00:00:00 | |
| PETON7-10 | 2026-09-02 12:14:10 | 47.43999 | 19.85952 | 22° | 18km/h | 18968m | 5.3m/s | -53.3°C | 3.6% | 69.5hPa | 2.7V | 00:00:00 | 00:00:00 | 00:00:00 | |
| PETON7-10 | 2026-09-02 12:13:55 | 47.43965 | 19.85875 | 57° | 15km/h | 18876m | 7.4m/s | -52.7°C | 3.4% | 70.5hPa | 2.7V | 00:00:00 | 01:18:46 | 00:00:00 | |
| PETON7-10 | 2026-09-02 12:13:40 | 47.43964 | 19.85800 | 76° | 16km/h | 18788m | 4.2m/s | -52.0°C | 3.2% | 71.5hPa | 2.7V | 00:00:00 | 00:00:00 | 00:00:00 | |
| GYPAP8-17 | 2026-09-02 12:13:33 | 47.43971 | 19.85764 | 111° | 20km/h | 18753m | 4.9m/s | -51.9°C | 0.7% | 71.9hPa | 2.6V | 00:00:00 | 00:00:00 | 00:00:00 | |
| PETON7-10 | 2026-09-02 12:13:25 | 47.43991 | 19.85721 | 118° | 29km/h | 18700m | 4.9m/s | -52.4°C | 3.1% | 72.5hPa | 2.6V | 00:00:00 | 00:00:00 | 00:00:00 | |
| PETON7-10 | 2026-09-02 12:13:10 | 47.44047 | 19.85585 | 116° | 35km/h | 18610m | 4.4m/s | -53.8°C | 3.6% | 73.5hPa | 2.6V | 00:00:00 | 01:18:01 | 00:00:00 | |
| PETON7-10 | 2026-09-02 12:12:55 | 47.44093 | 19.85399 | 108° | 44km/h | 18525m | 5.5m/s | -53.7°C | 3.5% | 74.5hPa | 2.6V | 00:00:00 | 00:00:00 | 08:30:00 | |
| PETON7-10 | 2026-09-02 12:12:39 | 47.44128 | 19.85149 | 91° | 42km/h | 18433m | 4.2m/s | -53.8°C | 3.6% | 75.6hPa | 2.6V | 00:00:00 | 00:00:00 | 00:00:00 | |
| GYPAP8-17 | 2026-09-02 12:12:30 | 47.44139 | 19.85024 | 92° | 38km/h | 18387m | 4.8m/s | -53.6°C | 0.8% | 76.1hPa | 2.6V | 00:00:00 | 00:00:00 | 00:00:00 | |
| PETON7-10 | 2026-09-02 12:12:23 | 47.44132 | 19.84898 | 94° | 35km/h | 18339m | 6.6m/s | -53.7°C | 3.5% | 76.6hPa | 2.6V | 00:00:00 | 01:17:14 | 00:00:00 | |
| PETON7-10 | 2026-09-02 12:12:08 | 47.44137 | 19.84710 | 90° | 27km/h | 18257m | 5.0m/s | -53.6°C | 3.5% | 77.6hPa | 2.6V | 00:00:00 | 00:00:00 | 00:00:00 | |
| PETON7-10 | 2026-09-02 12:11:53 | 47.44144 | 19.84562 | 89° | 31km/h | 18173m | 6.5m/s | -53.6°C | 3.5% | 78.6hPa | 2.7V | 00:00:00 | 00:00:00 | 00:00:00 | |
| PETON7-10 | 2026-09-02 12:11:38 | 47.44143 | 19.84389 | 95° | 35km/h | 18090m | 6.6m/s | -54.2°C | 3.6% | 79.7hPa | 2.7V | 00:00:00 | 01:16:29 | 00:00:00 | |
| GYPAP8-17 | 2026-09-02 12:11:27 | 47.44145 | 19.84264 | 97° | 38km/h | 18034m | 6.3m/s | -54.7°C | 0.9% | 80.4hPa | 2.7V | 00:00:00 | 00:00:00 | 00:00:00 | |
| PETON7-10 | 2026-09-02 12:11:23 | 47.44152 | 19.84194 | 95° | 44km/h | 18007m | 5.0m/s | -54.5°C | 3.7% | 80.7hPa | 2.7V | 00:00:00 | 00:00:00 | 00:00:00 | |
| PETON7-10 | 2026-09-02 12:11:08 | 47.44153 | 19.83949 | 89° | 49km/h | 17921m | 6.2m/s | -54.4°C | 3.7% | 81.8hPa | 2.6V | 00:00:00 | 00:00:00 | 00:00:00 | |
| PETON7-10 | 2026-09-02 12:10:53 | 47.44130 | 19.83676 | 77° | 55km/h | 17837m | 5.5m/s | -54.5°C | 3.8% | 82.8hPa | 2.6V | 00:00:00 | 01:15:44 | 00:00:00 | |
| PETON7-10 | 2026-09-02 12:10:38 | 47.44072 | 19.83377 | 72° | 58km/h | 17753m | 4.3m/s | -53.9°C | 3.6% | 83.9hPa | 2.6V | 00:00:00 | 00:00:00 | 08:30:00 | |
| PETON7-10 | 2026-09-02 12:10:23 | 47.44004 | 19.83062 | 67° | 57km/h | 17672m | 4.3m/s | -53.7°C | 3.5% | 85.0hPa | 2.6V | 00:00:00 | 00:00:00 | 00:00:00 | |
| GYPAP8-17 | 2026-09-02 12:10:22 | 47.44004 | 19.83062 | 67° | 66km/h | 17672m | 4.3m/s | -53.8°C | 0.9% | 85.0hPa | 2.6V | 00:00:00 | 00:00:00 | 00:00:00 | |
| PETON7-10 | 2026-09-02 12:10:07 | 47.43926 | 19.82746 | 65° | 47km/h | 17589m | 3.1m/s | -54.4°C | 3.6% | 86.0hPa | 2.6V | 00:00:00 | 01:14:58 | 00:00:00 | |
| PETON7-10 | 2026-09-02 12:09:52 | 47.43890 | 19.82488 | 81° | 47km/h | 17513m | 3.6m/s | -54.4°C | 3.6% | 87.1hPa | 2.6V | 00:00:00 | 00:00:00 | 00:00:00 | |
| PETON7-10 | 2026-09-02 12:09:37 | 47.43889 | 19.82225 | 91° | 51km/h | 17438m | 4.6m/s | -54.8°C | 3.7% | 88.1hPa | 2.7V | 00:00:00 | 00:00:00 | 00:00:00 | |
| PETON7-10 | 2026-09-02 12:09:22 | 47.43869 | 19.81950 | 72° | 53km/h | 17365m | 5.2m/s | -55.3°C | 3.8% | 89.1hPa | 2.7V | 00:00:00 | 01:14:13 | 00:00:00 | |
| GYPAP8-17 | 2026-09-02 12:09:18 | 47.43858 | 19.81898 | 73° | 49km/h | 17350m | 4.0m/s | -55.3°C | 1.0% | 89.4hPa | 2.7V | 00:00:00 | 00:00:00 | 00:00:00 | |
| PETON7-10 | 2026-09-02 12:09:07 | 47.43830 | 19.81667 | 81° | 60km/h | 17293m | 3.2m/s | -55.8°C | 4.0% | 90.1hPa | 2.7V | 00:00:00 | 00:00:00 | 00:00:00 | |
| PETON7-10 | 2026-09-02 12:08:52 | 47.43803 | 19.81330 | 80° | 58km/h | 17217m | 5.0m/s | -55.3°C | 4.0% | 91.2hPa | 2.7V | 00:00:00 | 00:00:00 | 00:00:00 | |
| PETON7-10 | 2026-09-02 12:08:37 | 47.43753 | 19.81008 | 79° | 55km/h | 17136m | 5.3m/s | -55.1°C | 3.9% | 92.4hPa | 2.7V | 00:00:00 | 01:13:28 | 00:00:00 | |
| PETON7-10 | 2026-09-02 12:08:22 | 47.43691 | 19.80710 | 72° | 53km/h | 17050m | 4.9m/s | -54.8°C | 3.8% | 93.6hPa | 2.7V | 00:00:00 | 00:00:00 | 08:30:00 | |
| GYPAP8-17 | 2026-09-02 12:08:15 | 47.43663 | 19.80606 | 69° | 47km/h | 17019m | 5.3m/s | -54.6°C | 1.0% | 94.1hPa | 2.7V | 00:00:00 | 00:00:00 | 00:00:00 | |
| PETON7-10 | 2026-09-02 12:08:07 | 47.43610 | 19.80443 | 65° | 49km/h | 16972m | 5.3m/s | -54.7°C | 3.9% | 94.7hPa | 2.7V | 00:00:00 | 00:00:00 | 00:00:00 | |
| PETON7-10 | 2026-09-02 12:07:52 | 47.43547 | 19.80184 | 79° | 44km/h | 16890m | 5.2m/s | -54.8°C | 3.8% | 96.0hPa | 2.7V | 00:00:00 | 01:12:43 | 00:00:00 | |
| PETON7-10 | 2026-09-02 12:07:37 | 47.43507 | 19.79945 | 86° | 49km/h | 16806m | 3.8m/s | -55.2°C | 4.0% | 97.2hPa | 2.7V | 00:00:00 | 00:00:00 | 00:00:00 | |
| PETON7-10 | 2026-09-02 12:07:22 | 47.43470 | 19.79672 | 78° | 46km/h | 16720m | 4.4m/s | -55.4°C | 4.1% | 98.5hPa | 2.7V | 00:00:00 | 00:00:00 | 00:00:00 | |
| GYPAP8-17 | 2026-09-02 12:07:11 | 47.43446 | 19.79503 | 72° | 46km/h | 16661m | 5.9m/s | -55.4°C | 1.1% | 99.5hPa | 2.7V | 00:00:00 | 00:00:00 | 00:00:00 | |
| PETON7-10 | 2026-09-02 12:07:07 | 47.43428 | 19.79425 | 75° | 40km/h | 16630m | 6.6m/s | -55.4°C | 4.2% | 99.9hPa | 2.7V | 00:00:00 | 01:11:58 | 00:00:00 | |
| PETON7-10 | 2026-09-02 12:06:52 | 47.43374 | 19.79219 | 72° | 35km/h | 16544m | 4.4m/s | -55.0°C | 4.0% | 101.3hPa | 2.7V | 00:00:00 | 00:00:00 | 00:00:00 | |
| PETON7-10 | 2026-09-02 12:06:37 | 47.43345 | 19.79032 | 78° | 42km/h | 16461m | 6.0m/s | -54.5°C | 3.9% | 102.6hPa | 2.7V | 00:00:00 | 00:00:00 | 00:00:00 | |
| PETON7-10 | 2026-09-02 12:06:22 | 47.43317 | 19.78806 | 78° | 47km/h | 16376m | 4.9m/s | -54.1°C | 3.9% | 103.9hPa | 2.7V | 00:00:00 | 01:11:13 | 00:00:00 | |
| GYPAP8-17 | 2026-09-02 12:06:08 | 47.43297 | 19.78580 | 88° | 51km/h | 16304m | 4.8m/s | -54.0°C | 1.1% | 105.1hPa | 2.7V | 00:00:00 | 00:00:00 | 00:00:00 | |
| PETON7-10 | 2026-09-02 12:06:07 | 47.43296 | 19.78541 | 86° | 53km/h | 16295m | 6.0m/s | -53.9°C | 3.8% | 105.3hPa | 2.7V | 00:00:00 | 00:00:00 | 08:30:00 | |
| PETON7-10 | 2026-09-02 12:05:52 | 47.43290 | 19.78243 | 87° | 47km/h | 16216m | 6.2m/s | -53.3°C | 3.7% | 106.6hPa | 2.7V | 00:00:00 | 00:00:00 | 00:00:00 | |
| PETON7-10 | 2026-09-02 12:05:37 | 47.43279 | 19.77979 | 86° | 47km/h | 16133m | 4.3m/s | -53.2°C | 3.7% | 107.9hPa | 2.7V | 00:00:00 | 01:10:28 | 00:00:00 | |
| PETON7-10 | 2026-09-02 12:05:22 | 47.43288 | 19.77712 | 95° | 47km/h | 16051m | 4.4m/s | -53.3°C | 3.7% | 109.3hPa | 2.7V | 00:00:00 | 00:00:00 | 00:00:00 | |
| PETON7-10 | 2026-09-02 12:05:07 | 47.43300 | 19.77447 | 97° | 57km/h | 15981m | 3.9m/s | -53.3°C | 3.7% | 110.5hPa | 2.7V | 00:00:00 | 00:00:00 | 00:00:00 | |
| GYPAP8-17 | 2026-09-02 12:05:04 | 47.43303 | 19.77406 | 93° | 57km/h | 15972m | 3.9m/s | -53.4°C | 1.1% | 110.7hPa | 2.7V | 00:00:00 | 00:00:00 | 00:00:00 | |
| PETON7-10 | 2026-09-02 12:04:52 | 47.43319 | 19.77132 | 95° | 57km/h | 15906m | 4.5m/s | -53.7°C | 3.8% | 111.8hPa | 2.7V | 00:00:00 | 01:09:43 | 00:00:00 | |
| PETON7-10 | 2026-09-02 12:04:37 | 47.43324 | 19.76812 | 96° | 58km/h | 15830m | 4.4m/s | -53.6°C | 3.8% | 113.1hPa | 2.7V | 00:00:00 | 00:00:00 | 00:00:00 | |
| PETON7-10 | 2026-09-02 12:04:22 | 47.43341 | 19.76488 | 93° | 66km/h | 15752m | 4.3m/s | -53.8°C | 3.9% | 114.5hPa | 2.6V | 00:00:00 | 00:00:00 | 00:00:00 | |
| PETON7-10 | 2026-09-02 12:04:06 | 47.43342 | 19.76096 | 91° | 66km/h | 15669m | 5.3m/s | -53.9°C | 3.9% | 116.0hPa | 2.6V | 00:00:00 | 01:08:57 | 00:00:00 | |
| GYPAP8-17 | 2026-09-02 12:04:01 | 47.43340 | 19.75997 | 86° | 66km/h | 15648m | 3.6m/s | -54.0°C | 1.2% | 116.4hPa | 2.6V | 00:00:00 | 00:00:00 | 00:00:00 | |
| PETON7-10 | 2026-09-02 12:03:51 | 47.43312 | 19.75738 | 85° | 58km/h | 15593m | 5.7m/s | -53.7°C | 3.9% | 117.4hPa | 2.6V | 00:00:00 | 00:00:00 | 08:30:00 | |
| PETON7-10 | 2026-09-02 12:03:36 | 47.43288 | 19.75414 | 90° | 58km/h | 15515m | 5.8m/s | -53.1°C | 3.6% | 118.8hPa | 2.7V | 00:00:00 | 00:00:00 | 00:00:00 | |
| PETON7-10 | 2026-09-02 12:03:21 | 47.43286 | 19.75090 | 97° | 60km/h | 15437m | 4.0m/s | -52.7°C | 3.6% | 120.2hPa | 2.7V | 00:00:00 | 01:08:12 | 00:00:00 | |
| PETON7-10 | 2026-09-02 12:03:06 | 47.43300 | 19.74750 | 98° | 69km/h | 15358m | 5.9m/s | -53.1°C | 3.6% | 121.7hPa | 2.7V | 00:00:00 | 00:00:00 | 00:00:00 | |
| GYPAP8-17 | 2026-09-02 12:02:58 | 47.43310 | 19.74569 | 92° | 75km/h | 15320m | 5.3m/s | -53.4°C | 1.1% | 122.5hPa | 2.7V | 00:00:00 | 00:00:00 | 00:00:00 | |
| PETON7-10 | 2026-09-02 12:02:51 | 47.43311 | 19.74357 | 87° | 68km/h | 15279m | 5.2m/s | -53.4°C | 3.8% | 123.2hPa | 2.7V | 00:00:00 | 00:00:00 | 00:00:00 | |
| PETON7-10 | 2026-09-02 12:02:35 | 47.43290 | 19.73955 | 83° | 62km/h | 15196m | 4.1m/s | -52.8°C | 3.7% | 124.8hPa | 2.7V | 00:00:00 | 01:07:26 | 00:00:00 | |
| PETON7-10 | 2026-09-02 12:02:21 | 47.43268 | 19.73605 | 89° | 64km/h | 15117m | 4.4m/s | -52.4°C | 3.6% | 126.3hPa | 2.7V | 00:00:00 | 00:00:00 | 00:00:00 | |
| PETON7-10 | 2026-09-02 12:02:05 | 47.43261 | 19.73249 | 87° | 68km/h | 15035m | 6.2m/s | -52.1°C | 3.6% | 127.9hPa | 2.7V | 00:00:00 | 00:00:00 | 00:00:00 | |
| GYPAP8-17 | 2026-09-02 12:01:55 | 47.43254 | 19.73025 | 88° | 66km/h | 14985m | 5.3m/s | -52.2°C | 1.1% | 128.9hPa | 2.7V | 00:00:00 | 00:00:00 | 00:00:00 | |
| PETON7-10 | 2026-09-02 12:01:50 | 47.43240 | 19.72875 | 79° | 69km/h | 14952m | 5.0m/s | -52.3°C | 3.5% | 129.5hPa | 2.7V | 00:00:00 | 01:06:41 | 00:00:00 | |
| PETON7-10 | 2026-09-02 12:01:35 | 47.43183 | 19.72497 | 75° | 75km/h | 14873m | 5.7m/s | -52.7°C | 3.7% | 131.2hPa | 2.7V | 00:00:00 | 00:00:00 | 08:30:00 | |
| PETON7-10 | 2026-09-02 12:01:20 | 47.43140 | 19.72087 | 80° | 71km/h | 14792m | 3.4m/s | -52.9°C | 3.8% | 132.8hPa | 2.7V | 00:00:00 | 00:00:00 | 00:00:00 | |
| PETON7-10 | 2026-09-02 12:01:05 | 47.43076 | 19.71702 | 78° | 68km/h | 14710m | 5.8m/s | -52.7°C | 3.7% | 134.5hPa | 2.7V | 00:00:00 | 01:05:56 | 00:00:00 | |
| PETON7-10 | 2026-09-02 12:00:50 | 47.43024 | 19.71336 | 79° | 60km/h | 14633m | 4.3m/s | -53.0°C | 3.8% | 136.1hPa | 2.7V | 00:00:00 | 00:00:00 | 00:00:00 | |
| PETON7-10 | 2026-09-02 12:00:35 | 47.42993 | 19.71002 | 87° | 66km/h | 14554m | 3.2m/s | -53.0°C | 3.8% | 137.8hPa | 2.7V | 00:00:00 | 00:00:00 | 00:00:00 | |
| PETON7-10 | 2026-09-02 12:00:20 | 47.42980 | 19.70635 | 88° | 75km/h | 14476m | 4.1m/s | -53.0°C | 3.9% | 139.4hPa | 2.7V | 00:00:00 | 01:05:11 | 00:00:00 | |
| PETON7-10 | 2026-09-02 12:00:05 | 47.42975 | 19.70215 | 89° | 86km/h | 14401m | 4.5m/s | -53.3°C | 4.0% | 141.1hPa | 2.7V | 00:00:00 | 00:00:00 | 00:00:00 | |
| GYPAP8-17 | 2026-09-02 11:59:50 | 47.42942 | 19.69734 | 85° | 95km/h | 14320m | 4.7m/s | -53.1°C | 1.4% | 142.9hPa | 2.7V | 00:00:00 | 00:00:00 | 00:00:00 | |
| PETON7-10 | 2026-09-02 11:59:35 | 47.42887 | 19.69217 | 81° | 97km/h | 14239m | 4.2m/s | -52.6°C | 3.9% | 144.7hPa | 2.7V | 00:00:00 | 01:04:26 | 00:00:00 | |
| PETON7-10 | 2026-09-02 11:59:20 | 47.42803 | 19.68687 | 78° | 93km/h | 14165m | 3.6m/s | -52.2°C | 3.8% | 146.3hPa | 2.7V | 00:00:00 | 00:00:00 | 08:30:00 | |
| PETON7-10 | 2026-09-02 11:59:05 | 47.42706 | 19.68183 | 75° | 93km/h | 14093m | 5.0m/s | -52.0°C | 3.8% | 147.9hPa | 2.7V | 00:00:00 | 00:00:00 | 00:00:00 | |
| PETON7-10 | 2026-09-02 11:58:50 | 47.42582 | 19.67698 | 70° | 89km/h | 14022m | 5.2m/s | -51.7°C | 3.7% | 149.7hPa | 2.7V | 00:00:00 | 01:03:41 | 00:00:00 | |
| GYPAP8-17 | 2026-09-02 11:58:46 | 47.42547 | 19.67572 | 66° | 93km/h | 14004m | 4.0m/s | -51.7°C | 1.3% | 150.1hPa | 2.7V | 00:00:00 | 00:00:00 | 00:00:00 | |
| PETON7-10 | 2026-09-02 11:58:35 | 47.42449 | 19.67242 | 69° | 82km/h | 13953m | 4.7m/s | -51.9°C | 3.7% | 151.2hPa | 2.7V | 00:00:00 | 00:00:00 | 00:00:00 | |
| PETON7-10 | 2026-09-02 11:58:20 | 47.42322 | 19.66819 | 72° | 82km/h | 13867m | 4.9m/s | -52.1°C | 3.7% | 153.3hPa | 2.7V | 00:00:00 | 00:00:00 | 00:00:00 | |
| PETON7-10 | 2026-09-02 11:58:05 | 47.42220 | 19.66384 | 75° | 78km/h | 13781m | 3.7m/s | -52.5°C | 3.8% | 155.4hPa | 2.7V | 00:00:00 | 01:02:56 | 00:00:00 | |
| PETON7-10 | 2026-09-02 11:57:50 | 47.42138 | 19.65967 | 70° | 69km/h | 13704m | 8.5m/s | -52.4°C | 4.0% | 157.2hPa | 2.7V | 00:00:00 | 00:00:00 | 00:00:00 | |
| GYPAP8-17 | 2026-09-02 11:57:43 | 47.42094 | 19.65789 | 81° | 71km/h | 13660m | 5.1m/s | -52.4°C | 1.4% | 158.3hPa | 2.7V | 00:00:00 | 00:00:00 | 00:00:00 | |
| PETON7-10 | 2026-09-02 11:57:35 | 47.42078 | 19.65597 | 76° | 69km/h | 13610m | 6.1m/s | -52.1°C | 3.8% | 159.4hPa | 2.7V | 00:00:00 | 00:00:00 | 00:00:00 | |
| PETON7-10 | 2026-09-02 11:57:20 | 47.42049 | 19.65215 | 84° | 71km/h | 13529m | 5.0m/s | -52.0°C | 4.0% | 161.5hPa | 2.7V | 00:00:00 | 01:02:11 | 00:00:00 | |
| PETON7-10 | 2026-09-02 11:57:04 | 47.42052 | 19.64793 | 90° | 77km/h | 13433m | 3.9m/s | -52.1°C | 4.1% | 163.9hPa | 2.7V | 00:00:00 | 00:00:00 | 08:30:00 | |
| PETON7-10 | 2026-09-02 11:56:49 | 47.42030 | 19.64363 | 81° | 71km/h | 13349m | 5.6m/s | -52.1°C | 4.3% | 166.0hPa | 2.7V | 00:00:00 | 00:00:00 | 00:00:00 | |
| GYPAP8-17 | 2026-09-02 11:56:40 | 47.42000 | 19.64125 | 77° | 73km/h | 13299m | 7.7m/s | -52.0°C | 1.9% | 167.4hPa | 2.7V | 00:00:00 | 00:00:00 | 00:00:00 | |
| PETON7-10 | 2026-09-02 11:56:34 | 47.41973 | 19.63972 | 73° | 77km/h | 13266m | 5.3m/s | -52.0°C | 4.3% | 168.2hPa | 2.7V | 00:00:00 | 01:01:25 | 00:00:00 | |
| ATIDSZ-14 | 2026-09-02 11:56:20 | 47.41903 | 19.63619 | 84° | 78km/h | 13193m | 4.0m/s | -51.8°C | 1.9% | 170.1hPa | 2.7V | 00:00:00 | 00:00:00 | 00:00:00 | |
| PETON7-10 | 2026-09-02 11:56:18 | 47.41894 | 19.63537 | 78° | 86km/h | 13177m | 8.4m/s | -51.8°C | 4.3% | 170.4hPa | 2.7V | 00:00:00 | 00:00:00 | 00:00:00 | |
| PETON7-10 | 2026-09-02 11:56:03 | 47.41824 | 19.63064 | 77° | 86km/h | 13082m | 7.9m/s | -51.7°C | 4.3% | 173.0hPa | 2.7V | 00:00:00 | 00:00:00 | 00:00:00 | |
| ATIDSZ-14 | 2026-09-02 11:56:01 | 47.41814 | 19.63001 | 77° | 84km/h | 13070m | 7.7m/s | -51.7°C | 2.0% | 173.4hPa | 2.7V | 00:00:00 | 00:00:00 | 00:00:00 | |
| PETON7-10 | 2026-09-02 11:55:48 | 47.41748 | 19.62596 | 71° | 89km/h | 12990m | 4.6m/s | -51.4°C | 4.4% | 175.6hPa | 2.7V | 00:00:00 | 01:00:39 | 00:00:00 | |
| ATIDSZ-14 | 2026-09-02 11:55:38 | 47.41692 | 19.62264 | 80° | 91km/h | 12928m | 6.7m/s | -52.0°C | 2.0% | 177.3hPa | 2.7V | 00:00:00 | 00:00:00 | 00:00:00 | |
| GYPAP8-17 | 2026-09-02 11:55:36 | 47.41681 | 19.62199 | 75° | 88km/h | 12912m | 4.4m/s | -51.9°C | 2.1% | 177.8hPa | 2.7V | 00:00:00 | 00:00:00 | 00:00:00 | |
| PETON7-10 | 2026-09-02 11:55:33 | 47.41664 | 19.62108 | 75° | 89km/h | 12895m | 9.0m/s | -51.8°C | 4.6% | 178.2hPa | 2.7V | 00:00:00 | 00:00:00 | 00:00:00 | |
| PETON7-10 | 2026-09-02 11:55:16 | 47.41587 | 19.61557 | 82° | 88km/h | 12776m | 9.3m/s | -51.6°C | 4.6% | 181.4hPa | 2.7V | 00:00:00 | 00:00:00 | 00:00:00 | |
| ATIDSZ-14 | 2026-09-02 11:55:14 | 47.41585 | 19.61524 | 86° | 89km/h | 12767m | 8.5m/s | -51.7°C | 2.2% | 181.7hPa | 2.7V | 00:00:00 | 00:00:00 | 00:00:00 | |
| PETON7-10 | 2026-09-02 11:55:01 | 47.41539 | 19.61070 | 85° | 97km/h | 12672m | 8.5m/s | -52.2°C | 5.0% | 184.3hPa | 2.7V | 00:00:00 | 00:59:52 | 00:00:00 | |
| ATIDSZ-14 | 2026-09-02 11:54:47 | 47.41476 | 19.60613 | 76° | 100km/h | 12581m | 7.8m/s | -52.1°C | 2.6% | 186.9hPa | 2.7V | 00:00:00 | 00:00:00 | 00:00:00 | |
| PETON7-10 | 2026-09-02 11:54:46 | 47.41462 | 19.60541 | 76° | 97km/h | 12569m | 7.0m/s | -51.9°C | 5.1% | 187.3hPa | 2.7V | 00:00:00 | 00:00:00 | 08:30:00 | |
| PETON7-10 | 2026-09-02 11:54:31 | 47.41386 | 19.60017 | 79° | 93km/h | 12473m | 8.4m/s | -51.9°C | 5.4% | 190.2hPa | 2.7V | 00:00:00 | 00:00:00 | 00:00:00 | |
| ATIDSZ-14 | 2026-09-02 11:54:26 | 47.41367 | 19.59883 | 79° | 95km/h | 12445m | 5.0m/s | -51.9°C | 2.9% | 191.0hPa | 2.7V | 00:00:00 | 00:00:00 | 00:00:00 | |
| PETON7-10 | 2026-09-02 11:54:16 | 47.41303 | 19.59513 | 80° | 84km/h | 12379m | 5.8m/s | -51.7°C | 5.7% | 192.9hPa | 2.7V | 00:00:00 | 00:59:07 | 00:00:00 | |
| ATIDSZ-14 | 2026-09-02 11:54:02 | 47.41237 | 19.59124 | 79° | 84km/h | 12292m | 5.2m/s | -51.9°C | 3.4% | 195.5hPa | 2.7V | 00:00:00 | 00:00:00 | 00:00:00 | |
| PETON7-10 | 2026-09-02 11:54:01 | 47.41226 | 19.59063 | 73° | 89km/h | 12280m | 5.7m/s | -52.1°C | 6.0% | 195.8hPa | 2.7V | 00:00:00 | 00:00:00 | 00:00:00 | |
| PETON7-10 | 2026-09-02 11:53:45 | 47.41147 | 19.58543 | 78° | 99km/h | 12184m | 8.0m/s | -52.2°C | 6.6% | 198.7hPa | 2.7V | 00:00:00 | 00:00:00 | 00:00:00 | |
| ATIDSZ-14 | 2026-09-02 11:53:34 | 47.41093 | 19.58180 | 78° | 106km/h | 12119m | 3.9m/s | -52.4°C | 4.7% | 200.8hPa | 2.7V | 00:00:00 | 00:00:00 | 00:00:00 | |
| PETON7-10 | 2026-09-02 11:53:30 | 47.41067 | 19.58000 | 80° | 95km/h | 12091m | 6.3m/s | -52.7°C | 7.8% | 201.6hPa | 2.7V | 00:00:00 | 00:58:21 | 00:00:00 | |
| GYPAP8-17 | 2026-09-02 11:53:28 | 47.41063 | 19.57963 | 81° | 100km/h | 12085m | 6.0m/s | -52.9°C | 5.1% | 201.8hPa | 2.7V | 00:00:00 | 00:00:00 | 00:00:00 | |
| PETON7-10 | 2026-09-02 11:53:15 | 47.41019 | 19.57467 | 84° | 104km/h | 12007m | 7.9m/s | -53.3°C | 10.2% | 204.2hPa | 2.7V | 00:00:00 | 00:00:00 | 00:00:00 | |
| ATIDSZ-14 | 2026-09-02 11:53:13 | 47.41012 | 19.57392 | 82° | 102km/h | 11991m | 8.5m/s | -54.1°C | 7.8% | 204.7hPa | 2.7V | 00:00:00 | 00:00:00 | 00:00:00 | |
| PETON7-10 | 2026-09-02 11:53:00 | 47.40957 | 19.56890 | 83° | 110km/h | 11906m | 6.5m/s | -54.8°C | 12.8% | 207.4hPa | 2.7V | 00:00:00 | 00:00:00 | 00:00:00 | |
| ATIDSZ-14 | 2026-09-02 11:52:50 | 47.40907 | 19.56530 | 79° | 113km/h | 11856m | 3.7m/s | -54.4°C | 9.8% | 209.1hPa | 2.7V | 00:00:00 | 00:00:00 | 00:00:00 | |
| PETON7-10 | 2026-09-02 11:52:44 | 47.40869 | 19.56245 | 76° | 120km/h | 11823m | 3.3m/s | -54.3°C | 14.0% | 210.2hPa | 2.7V | 00:00:00 | 00:57:35 | 00:00:00 | |
| ATIDSZ-14 | 2026-09-02 11:52:31 | 47.40783 | 19.55673 | 81° | 122km/h | 11758m | 6.6m/s | -54.3°C | 11.5% | 212.4hPa | 2.7V | 00:00:00 | 00:00:00 | 00:00:00 | |
| PETON7-10 | 2026-09-02 11:52:29 | 47.40772 | 19.55584 | 80° | 117km/h | 11747m | 5.4m/s | -54.2°C | 15.8% | 212.8hPa | 2.7V | 00:00:00 | 00:00:00 | 08:30:00 | |
| GYPAP8-17 | 2026-09-02 11:52:27 | 47.40761 | 19.55499 | 81° | 117km/h | 11736m | 5.1m/s | -54.3°C | 11.8% | 213.1hPa | 2.7V | 00:00:00 | 00:00:00 | 00:00:00 | |
| PETON7-10 | 2026-09-02 11:52:14 | 47.40664 | 19.54953 | 76° | 119km/h | 11666m | 5.7m/s | -54.3°C | 18.1% | 215.5hPa | 2.7V | 00:00:00 | 00:00:00 | 00:00:00 | |
| ATIDSZ-14 | 2026-09-02 11:52:09 | 47.40635 | 19.54777 | 79° | 128km/h | 11643m | 4.6m/s | -54.3°C | 14.8% | 216.3hPa | 2.7V | 00:00:00 | 00:00:00 | 00:00:00 | |
| PETON7-10 | 2026-09-02 11:51:59 | 47.40528 | 19.54314 | 76° | 115km/h | 11586m | 6.6m/s | -54.1°C | 21.1% | 218.2hPa | 2.7V | 00:00:00 | 00:56:50 | 00:00:00 | |
| ATIDSZ-14 | 2026-09-02 11:51:47 | 47.40458 | 19.53810 | 82° | 108km/h | 11506m | 5.6m/s | -54.7°C | 20.3% | 221.0hPa | 2.7V | 00:00:00 | 00:00:00 | 00:00:00 | |
| PETON7-10 | 2026-09-02 11:51:44 | 47.40440 | 19.53691 | 76° | 115km/h | 11488m | 5.4m/s | -54.7°C | 26.4% | 221.5hPa | 2.7V | 00:00:00 | 00:00:00 | 00:00:00 | |
| PETON7-10 | 2026-09-02 11:51:29 | 47.40347 | 19.53059 | 75° | 117km/h | 11401m | 4.9m/s | -55.4°C | 30.6% | 224.5hPa | 2.7V | 00:00:00 | 00:00:00 | 00:00:00 | |
| ATIDSZ-14 | 2026-09-02 11:51:25 | 47.40323 | 19.52929 | 77° | 119km/h | 11381m | 4.6m/s | -55.4°C | 25.7% | 225.3hPa | 2.7V | 00:00:00 | 00:00:00 | 00:00:00 | |
| GYPAP8-17 | 2026-09-02 11:51:23 | 47.40309 | 19.52845 | 76° | 113km/h | 11371m | 4.5m/s | -55.4°C | 26.4% | 225.6hPa | 2.7V | 00:00:00 | 00:00:00 | 00:00:00 | |
| PETON7-10 | 2026-09-02 11:51:14 | 47.40229 | 19.52432 | 69° | 106km/h | 11321m | 5.5m/s | -55.6°C | 34.3% | 227.4hPa | 2.7V | 00:00:00 | 00:56:05 | 00:00:00 | |
| ATIDSZ-14 | 2026-09-02 11:51:04 | 47.40144 | 19.52051 | 76° | 111km/h | 11261m | 5.2m/s | -55.8°C | 28.9% | 229.5hPa | 2.7V | 00:00:00 | 00:00:00 | 00:00:00 | |
| PETON7-10 | 2026-09-02 11:50:59 | 47.40106 | 19.51871 | 72° | 102km/h | 11231m | 6.2m/s | -55.8°C | 36.5% | 230.5hPa | 2.7V | 00:00:00 | 00:00:00 | 00:00:00 | |
| PETON7-10 | 2026-09-02 11:50:44 | 47.40027 | 19.51315 | 78° | 93km/h | 11142m | 7.2m/s | -55.5°C | 35.9% | 233.7hPa | 2.7V | 00:00:00 | 00:00:00 | 00:00:00 | |
| ATIDSZ-14 | 2026-09-02 11:50:39 | 47.39994 | 19.51133 | 72° | 102km/h | 11108m | 6.4m/s | -55.2°C | 29.9% | 235.1hPa | 2.7V | 00:00:00 | 00:00:00 | 00:00:00 | |
| PETON7-10 | 2026-09-02 11:50:29 | 47.39931 | 19.50821 | 77° | 95km/h | 11048m | 6.4m/s | -54.6°C | 35.8% | 237.4hPa | 2.7V | 00:00:00 | 00:55:20 | 00:00:00 | |
| GYPAP8-17 | 2026-09-02 11:50:19 | 47.39880 | 19.50500 | 85° | 95km/h | 10988m | 7.4m/s | -54.2°C | 0% | 239.5hPa | 2.7V | 00:00:00 | 00:00:00 | 00:00:00 | |
| ATIDSZ-14 | 2026-09-02 11:50:16 | 47.39867 | 19.50401 | 72° | 88km/h | 10971m | 6.5m/s | -54.1°C | 30.2% | 240.2hPa | 2.7V | 00:00:00 | 00:00:00 | 00:00:00 | |
| PETON7-10 | 2026-09-02 11:50:14 | 47.39842 | 19.50307 | 68° | 88km/h | 10951m | 7.6m/s | -54.0°C | 35.8% | 240.9hPa | 2.7V | 00:00:00 | 00:00:00 | 08:30:00 | |
| PETON7-10 | 2026-09-02 11:49:59 | 47.39755 | 19.49834 | 80° | 91km/h | 10847m | 7.1m/s | -53.2°C | 35.0% | 244.8hPa | 2.9V | 00:00:00 | 00:00:00 | 00:00:00 | |
| ATIDSZ-14 | 2026-09-02 11:49:53 | 47.39721 | 19.49622 | 71° | 91km/h | 10808m | 5.6m/s | -52.8°C | 28.8% | 246.3hPa | 2.9V | 00:00:00 | 00:00:00 | 00:00:00 | |
| PETON7-10 | 2026-09-02 11:49:44 | 47.39686 | 19.49342 | 84° | 91km/h | 10751m | 7.1m/s | -52.3°C | 33.0% | 248.4hPa | 2.9V | 00:00:00 | 00:54:35 | 00:00:00 | |
| ATIDSZ-14 | 2026-09-02 11:49:31 | 47.39642 | 19.48900 | 84° | 95km/h | 10679m | 6.6m/s | -51.8°C | 28.0% | 251.3hPa | 2.9V | 00:00:00 | 00:00:00 | 00:00:00 | |
| PETON7-10 | 2026-09-02 11:49:29 | 47.39636 | 19.48833 | 81° | 89km/h | 10669m | 6.1m/s | -51.7°C | 33.1% | 251.6hPa | 2.9V | 00:00:00 | 00:00:00 | 00:00:00 | |
| GYPAP8-17 | 2026-09-02 11:49:16 | 47.39605 | 19.48433 | 88° | 88km/h | 10608m | 6.7m/s | -51.3°C | 0% | 254.1hPa | 2.7V | 00:00:00 | 00:00:00 | 00:00:00 | |
| PETON7-10 | 2026-09-02 11:49:14 | 47.39599 | 19.48338 | 84° | 88km/h | 10586m | 8.2m/s | -51.1°C | 28.3% | 254.8hPa | 2.7V | 00:00:00 | 00:00:00 | 00:00:00 | |
| ATIDSZ-14 | 2026-09-02 11:49:09 | 47.39583 | 19.48179 | 84° | 93km/h | 10558m | 3.8m/s | -50.9°C | 24.5% | 256.0hPa | 2.7V | 00:00:00 | 00:00:00 | 00:00:00 | |
| PETON7-10 | 2026-09-02 11:48:59 | 47.39567 | 19.47852 | 86° | 93km/h | 10503m | 4.0m/s | -50.3°C | 31.5% | 258.2hPa | 2.7V | 00:00:00 | 00:53:50 | 00:00:00 | |
| ATIDSZ-14 | 2026-09-02 11:48:47 | 47.39551 | 19.47480 | 83° | 93km/h | 10433m | 4.7m/s | -49.9°C | 28.0% | 260.9hPa | 2.7V | 00:00:00 | 00:00:00 | 00:00:00 | |
| PETON7-10 | 2026-09-02 11:48:44 | 47.39533 | 19.47345 | 82° | 93km/h | 10409m | 6.2m/s | -49.6°C | 32.8% | 261.8hPa | 2.7V | 00:00:00 | 00:00:00 | 00:00:00 | |
| PETON7-10 | 2026-09-02 11:48:29 | 47.39513 | 19.46832 | 82° | 93km/h | 10328m | 5.5m/s | -49.0°C | 35.8% | 265.1hPa | 2.7V | 00:00:00 | 00:00:00 | 00:00:00 | |
| OE3JTB-15 | 2026-09-02 11:48:17 | 47.39490 | 19.46387 | 81° | 88km/h | 10240m | 5.9m/s | -48.2°C | 34.5% | 268.7hPa | 2.7V | 00:00:00 | 00:00:00 | 00:00:00 | |
| PETON7-10 | 2026-09-02 11:48:14 | 47.39483 | 19.46314 | 83° | 91km/h | 10232m | 5.5m/s | -48.2°C | 33.6% | 269.1hPa | 2.7V | 00:00:00 | 00:53:05 | 00:00:00 | |
| ATIDSZ-14 | 2026-09-02 11:48:06 | 47.39483 | 19.46072 | 88° | 86km/h | 10189m | 7.1m/s | -47.8°C | 27.2% | 270.9hPa | 2.7V | 00:00:00 | 00:00:00 | 00:00:00 | |
| GYPAP8-17 | 2026-09-02 11:48:00 | 47.39475 | 19.45869 | 87° | 88km/h | 10147m | 9.1m/s | -47.4°C | 0% | 272.6hPa | 2.7V | 00:00:00 | 00:00:00 | 00:00:00 | |
| PETON7-10 | 2026-09-02 11:47:59 | 47.39470 | 19.45806 | 79° | 88km/h | 10131m | 6.3m/s | -47.2°C | 29.3% | 273.1hPa | 2.7V | 00:00:00 | 00:00:00 | 08:30:00 | |
| ATIDSZ-14 | 2026-09-02 11:47:47 | 47.39461 | 19.45415 | 83° | 89km/h | 10054m | 5.7m/s | -46.5°C | 21.7% | 276.4hPa | 2.9V | 00:00:00 | 00:00:00 | 00:00:00 | |
| PETON7-10 | 2026-09-02 11:47:44 | 47.39457 | 19.45317 | 90° | 86km/h | 10039m | 6.0m/s | -46.3°C | 25.4% | 277.1hPa | 2.9V | 00:00:00 | 00:00:00 | 00:00:00 | |
| PETON7-10 | 2026-09-02 11:47:29 | 47.39445 | 19.44834 | 85° | 80km/h | 9935m | 6.9m/s | -45.5°C | 19.2% | 281.1hPa | 2.9V | 00:00:00 | 00:52:20 | 00:00:00 | |
| ATIDSZ-14 | 2026-09-02 11:47:25 | 47.39444 | 19.44737 | 93° | 80km/h | 9915m | 8.7m/s | -45.4°C | 15.7% | 282.1hPa | 2.9V | 00:00:00 | 00:00:00 | 00:00:00 | |
| OE3JTB-15 | 2026-09-02 11:47:14 | 47.39452 | 19.44358 | 92° | 71km/h | 9836m | 5.4m/s | -44.6°C | 17.8% | 285.3hPa | 2.9V | 00:00:00 | 00:00:00 | 00:00:00 | |
| ATIDSZ-14 | 2026-09-02 11:47:04 | 47.39452 | 19.44132 | 97° | 86km/h | 9792m | 5.9m/s | -44.2°C | 14.9% | 287.4hPa | 2.9V | 00:00:00 | 00:00:00 | 00:00:00 | |
| PETON7-10 | 2026-09-02 11:46:59 | 47.39459 | 19.43931 | 91° | 82km/h | 9749m | 8.2m/s | -43.8°C | 16.6% | 289.2hPa | 2.9V | 00:00:00 | 00:00:00 | 00:00:00 | |
| GYPAP8-17 | 2026-09-02 11:46:56 | 47.39458 | 19.43876 | 90° | 73km/h | 9735m | 7.3m/s | -43.7°C | 0% | 289.8hPa | 2.9V | 00:00:00 | 00:00:00 | 00:00:00 | |
| PETON7-10 | 2026-09-02 11:46:44 | 47.39471 | 19.43471 | 89° | 86km/h | 9659m | 7.3m/s | -43.0°C | 14.5% | 293.1hPa | 2.9V | 00:00:00 | 00:51:35 | 00:00:00 | |
| ATIDSZ-14 | 2026-09-02 11:46:42 | 47.39469 | 19.43438 | 88° | 88km/h | 9652m | 5.5m/s | -43.0°C | 11.8% | 293.4hPa | 2.9V | 00:00:00 | 00:00:00 | 00:00:00 | |
| PETON7-10 | 2026-09-02 11:46:29 | 47.39457 | 19.42999 | 87° | 84km/h | 9568m | 6.1m/s | -42.2°C | 13.0% | 297.2hPa | 2.9V | 00:00:00 | 00:00:00 | 00:00:00 | |
| ATIDSZ-14 | 2026-09-02 11:46:20 | 47.39470 | 19.42740 | 95° | 84km/h | 9523m | 6.0m/s | -41.8°C | 10.6% | 299.3hPa | 2.9V | 00:00:00 | 00:00:00 | 00:00:00 | |
| PETON7-10 | 2026-09-02 11:46:13 | 47.39476 | 19.42498 | 92° | 86km/h | 9469m | 5.3m/s | -41.3°C | 11.8% | 301.5hPa | 2.9V | 00:00:00 | 00:00:00 | 00:00:00 | |
| PETON7-10 | 2026-09-02 11:45:58 | 47.39485 | 19.42025 | 98° | 82km/h | 9386m | 5.9m/s | -40.5°C | 11.0% | 305.2hPa | 2.9V | 00:00:00 | 00:50:49 | 00:00:00 | |
| ATIDSZ-14 | 2026-09-02 11:45:57 | 47.39485 | 19.42025 | 99° | 78km/h | 9386m | 6.0m/s | -40.6°C | 9.0% | 305.3hPa | 2.9V | 00:00:00 | 00:00:00 | 00:00:00 | |
| GYPAP8-17 | 2026-09-02 11:45:54 | 47.39490 | 19.41942 | 92° | 77km/h | 9367m | 7.5m/s | -40.4°C | 0% | 306.2hPa | 2.9V | 00:00:00 | 00:00:00 | 00:00:00 | |
| PETON7-10 | 2026-09-02 11:45:43 | 47.39503 | 19.41564 | 85° | 84km/h | 9289m | 5.9m/s | -39.6°C | 9.5% | 309.6hPa | 2.9V | 00:00:00 | 00:00:00 | 08:30:00 | |
| ATIDSZ-14 | 2026-09-02 11:45:38 | 47.39495 | 19.41404 | 90° | 88km/h | 9260m | 6.7m/s | -39.3°C | 6.9% | 311.0hPa | 2.9V | 00:00:00 | 00:00:00 | 00:00:00 | |
| PETON7-10 | 2026-09-02 11:45:29 | 47.39517 | 19.41097 | 104° | 75km/h | 9199m | 4.8m/s | -38.8°C | 8.2% | 313.6hPa | 2.9V | 00:00:00 | 00:00:00 | 00:00:00 | |
| PETON7-10 | 2026-09-02 11:45:13 | 47.39570 | 19.40680 | 89° | 73km/h | 9107m | 6.3m/s | -38.0°C | 8.2% | 317.7hPa | 2.9V | 00:00:00 | 00:50:04 | 00:00:00 | |
| ATIDSZ-14 | 2026-09-02 11:45:12 | 47.39570 | 19.40680 | 90° | 82km/h | 9107m | 6.4m/s | -38.1°C | 6.6% | 317.8hPa | 2.9V | 00:00:00 | 00:00:00 | 00:00:00 | |
| PETON7-10 | 2026-09-02 11:44:58 | 47.39587 | 19.40278 | 90° | 77km/h | 9017m | 5.9m/s | -37.3°C | 8.3% | 322.0hPa | 2.9V | 00:00:00 | 00:00:00 | 00:00:00 | |
| ATIDSZ-14 | 2026-09-02 11:44:52 | 47.39593 | 19.40142 | 101° | 64km/h | 8993m | 5.1m/s | -37.2°C | 6.7% | 323.2hPa | 2.9V | 00:00:00 | 00:00:00 | 00:00:00 | |
| ATIDSZ-14 | 2026-09-02 11:44:32 | 47.39595 | 19.39587 | 83° | 80km/h | 8883m | 4.6m/s | -36.4°C | 7.2% | 328.3hPa | 2.9V | 00:00:00 | 00:00:00 | 00:00:00 | |
| PETON7-10 | 2026-09-02 11:44:28 | 47.39599 | 19.39436 | 103° | 68km/h | 8858m | 6.7m/s | -36.3°C | 9.4% | 329.5hPa | 2.9V | 00:00:00 | 00:49:19 | 00:00:00 | |
| GYPAP8-17 | 2026-09-02 11:44:19 | 47.39588 | 19.39238 | 90° | 80km/h | 8799m | 6.0m/s | 0°C | 0% | 332.4hPa | 2.9V | 00:00:00 | 00:00:00 | 00:00:00 | |
| PETON7-10 | 2026-09-02 11:44:13 | 47.39596 | 19.39062 | 89° | 66km/h | 8753m | 7.9m/s | -36.0°C | 10.6% | 334.5hPa | 2.9V | 00:00:00 | 00:00:00 | 00:00:00 | |
| ATIDSZ-14 | 2026-09-02 11:44:11 | 47.39597 | 19.39036 | 95° | 75km/h | 8746m | 6.1m/s | -36.1°C | 9.0% | 334.8hPa | 2.9V | 00:00:00 | 00:00:00 | 00:00:00 | |
| PETON7-10 | 2026-09-02 11:43:58 | 47.39621 | 19.38693 | 93° | 68km/h | 8663m | 4.7m/s | -35.6°C | 10.2% | 338.8hPa | 2.9V | 00:00:00 | 00:00:00 | 00:00:00 | |
| ATIDSZ-14 | 2026-09-02 11:43:51 | 47.39630 | 19.38555 | 91° | 57km/h | 8629m | 8.5m/s | -35.4°C | 8.5% | 340.6hPa | 2.9V | 00:00:00 | 00:00:00 | 00:00:00 | |
| PETON7-10 | 2026-09-02 11:43:43 | 47.39636 | 19.38315 | 90° | 64km/h | 8579m | 6.2m/s | -34.9°C | 10.0% | 342.9hPa | 2.9V | 00:00:00 | 00:48:34 | 00:00:00 | |
| OE3JTB-15 | 2026-09-02 11:43:32 | 47.39641 | 19.38067 | 89° | 69km/h | 8514m | 7.2m/s | -34.5°C | 10.2% | 346.3hPa | 2.9V | 00:00:00 | 00:00:00 | 00:00:00 | |
| ATIDSZ-14 | 2026-09-02 11:43:31 | 47.39641 | 19.38067 | 90° | 71km/h | 8514m | 7.3m/s | -34.5°C | 8.7% | 346.4hPa | 2.9V | 00:00:00 | 00:00:00 | 00:00:00 | |
| PETON7-10 | 2026-09-02 11:43:28 | 47.39638 | 19.37948 | 93° | 66km/h | 8488m | 5.8m/s | -34.3°C | 10.5% | 347.6hPa | 2.9V | 00:00:00 | 00:00:00 | 08:30:00 | |
| GYPAP8-17 | 2026-09-02 11:43:22 | 47.39634 | 19.37839 | 81° | 58km/h | 8455m | 6.6m/s | 0°C | 0% | 349.2hPa | 2.9V | 00:00:00 | 00:00:00 | 00:00:00 | |
| ATIDSZ-14 | 2026-09-02 11:43:12 | 47.39608 | 19.37548 | 94° | 64km/h | 8395m | 7.0m/s | -33.8°C | 9.0% | 352.1hPa | 2.9V | 00:00:00 | 00:00:00 | 00:00:00 | |
| OE3JTB-15 | 2026-09-02 11:42:58 | 47.39579 | 19.37219 | 81° | 64km/h | 8313m | 7.8m/s | -33.3°C | 12.0% | 356.2hPa | 2.9V | 00:00:00 | 00:47:49 | 00:00:00 | |
| PETON7-10 | 2026-09-02 11:42:57 | 47.39577 | 19.37195 | 86° | 68km/h | 8306m | 6.0m/s | -33.2°C | 12.1% | 356.5hPa | 2.9V | 00:00:00 | 00:47:48 | 00:00:00 | |
| ATIDSZ-14 | 2026-09-02 11:42:51 | 47.39568 | 19.37068 | 87° | 57km/h | 8275m | 6.4m/s | -33.0°C | 10.3% | 358.2hPa | 2.9V | 00:00:00 | 00:00:00 | 00:00:00 | |
| PETON7-10 | 2026-09-02 11:42:42 | 47.39575 | 19.36812 | 93° | 64km/h | 8212m | 3.8m/s | -32.5°C | 12.3% | 361.3hPa | 2.9V | 00:00:00 | 00:00:00 | 00:00:00 | |
| ATIDSZ-14 | 2026-09-02 11:42:31 | 47.39576 | 19.36589 | 90° | 69km/h | 8155m | 7.2m/s | -32.2°C | 12.5% | 364.2hPa | 2.7V | 00:00:00 | 00:00:00 | 00:00:00 | |
| PETON7-10 | 2026-09-02 11:42:27 | 47.39580 | 19.36458 | 98° | 58km/h | 8124m | 6.0m/s | -32.0°C | 18.8% | 365.8hPa | 2.7V | 00:00:00 | 00:00:00 | 00:00:00 | |
| OE3JTB-15 | 2026-09-02 11:42:23 | 47.39578 | 19.36364 | 81° | 60km/h | 8095m | 6.8m/s | 0°C | 0% | 0hPa | 2.7V | 00:00:00 | 00:00:00 | 00:00:00 | |
| GYPAP8-17 | 2026-09-02 11:42:19 | 47.39572 | 19.36303 | 86° | 57km/h | 8081m | 5.8m/s | 0°C | 0% | 0hPa | 2.7V | 00:00:00 | 00:00:00 | 00:00:00 | |
| PETON7-10 | 2026-09-02 11:42:12 | 47.39578 | 19.36135 | 103° | 64km/h | 8032m | 5.8m/s | -31.4°C | 25.8% | 370.7hPa | 2.7V | 00:00:00 | 00:47:03 | 00:00:00 | |
| ATIDSZ-14 | 2026-09-02 11:42:10 | 47.39581 | 19.36114 | 103° | 60km/h | 8027m | 5.8m/s | -31.4°C | 23.7% | 371.0hPa | 2.7V | 00:00:00 | 00:00:00 | 00:00:00 | |
| PETON7-10 | 2026-09-02 11:41:57 | 47.39606 | 19.35785 | 101° | 62km/h | 7946m | 5.2m/s | -30.6°C | 25.1% | 375.3hPa | 2.7V | 00:00:00 | 00:00:00 | 00:00:00 | |
| ATIDSZ-14 | 2026-09-02 11:41:51 | 47.39624 | 19.35650 | 97° | 47km/h | 7910m | 5.6m/s | -30.3°C | 22.7% | 377.2hPa | 2.7V | 00:00:00 | 00:00:00 | 00:00:00 | |
| PETON7-10 | 2026-09-02 11:41:42 | 47.39639 | 19.35442 | 94° | 66km/h | 7855m | 5.5m/s | -29.7°C | 25.4% | 380.1hPa | 2.7V | 00:00:00 | 00:00:00 | 00:00:00 | |
| ATIDSZ-14 | 2026-09-02 11:41:28 | 47.39662 | 19.35131 | 93° | 73km/h | 7784m | 4.6m/s | -29.1°C | 23.5% | 384.1hPa | 2.7V | 00:00:00 | 00:00:00 | 00:00:00 | |
| PETON7-10 | 2026-09-02 11:41:27 | 47.39664 | 19.35074 | 96° | 60km/h | 7774m | 8.0m/s | -28.9°C | 25.0% | 384.5hPa | 2.7V | 00:00:00 | 00:46:18 | 00:00:00 | |
| GYPAP8-17 | 2026-09-02 11:41:14 | 47.39675 | 19.34827 | 102° | 66km/h | 7692m | 7.0m/s | 0°C | 0% | 0hPa | 2.7V | 00:00:00 | 00:00:00 | 00:00:00 | |
| PETON7-10 | 2026-09-02 11:41:12 | 47.39683 | 19.34747 | 96° | 60km/h | 7674m | 7.8m/s | -28.2°C | 30.5% | 389.8hPa | 2.7V | 00:00:00 | 00:00:00 | 08:30:00 | |
| ATIDSZ-14 | 2026-09-02 11:41:07 | 47.39690 | 19.34655 | 104° | 53km/h | 7648m | 6.7m/s | -28.1°C | 30.1% | 391.2hPa | 0V | 00:00:00 | 00:00:00 | 00:00:00 | |
| PETON7-10 | 2026-09-02 11:40:57 | 47.39713 | 19.34420 | 108° | 60km/h | 7587m | 6.0m/s | 0°C | 0% | 0hPa | 0V | 00:00:00 | 00:00:00 | 00:00:00 | |
| ATIDSZ-14 | 2026-09-02 11:40:47 | 47.39736 | 19.34223 | 106° | 69km/h | 7542m | 5.9m/s | -27.3°C | 33.5% | 397.0hPa | 0V | 00:00:00 | 00:00:00 | 00:00:00 | |
| PETON7-10 | 2026-09-02 11:40:42 | 47.39760 | 19.34092 | 102° | 66km/h | 7510m | 7.6m/s | 0°C | 0% | 0hPa | 0V | 00:00:00 | 00:45:33 | 00:00:00 | |
| PETON7-10 | 2026-09-02 11:40:27 | 47.39801 | 19.33736 | 107° | 58km/h | 7431m | 5.5m/s | 0°C | 0% | 0hPa | 0V | 00:00:00 | 00:00:00 | 00:00:00 | |
| ATIDSZ-14 | 2026-09-02 11:40:26 | 47.39801 | 19.33736 | 107° | 51km/h | 7431m | 5.6m/s | -26.3°C | 33.9% | 403.3hPa | 0V | 00:00:00 | 00:00:00 | 00:00:00 | |
| OE3JTB-15 | 2026-09-02 11:40:19 | 47.39823 | 19.33514 | 107° | 55km/h | 7373m | 5.3m/s | 0°C | 0% | 0hPa | 0V | 00:00:00 | 00:45:08 | 00:00:00 | |
| GYPAP8-17 | 2026-09-02 11:40:16 | 47.39823 | 19.33514 | 107° | 55km/h | 7373m | 5.3m/s | 0°C | 0% | 0hPa | 0V | 00:00:00 | 00:00:00 | 00:00:00 | |
| PETON7-10 | 2026-09-02 11:40:12 | 47.39826 | 19.33410 | 92° | 60km/h | 7345m | 4.6m/s | 0°C | 0% | 0hPa | 0V | 00:00:00 | 00:00:00 | 00:00:00 | |
| ATIDSZ-14 | 2026-09-02 11:40:05 | 47.39848 | 19.33284 | 112° | 40km/h | 7310m | 6.9m/s | -25.2°C | 19.7% | 409.8hPa | 0V | 00:00:00 | 00:00:00 | 00:00:00 | |
| PETON7-10 | 2026-09-02 11:39:57 | 47.39879 | 19.33085 | 111° | 51km/h | 7262m | 3.6m/s | 0°C | 0% | 0hPa | 0V | 00:00:00 | 00:44:48 | 00:00:00 | |
| OE3JTB-15 | 2026-09-02 11:39:48 | 47.39930 | 19.32888 | 121° | 62km/h | 7200m | 4.8m/s | 0°C | 0% | 0hPa | 0V | 00:00:00 | 00:00:00 | 00:00:00 | |
| PETON7-10 | 2026-09-02 11:39:42 | 47.39947 | 19.32821 | 107° | 57km/h | 7179m | 8.7m/s | 0°C | 0% | 0hPa | 0V | 00:00:00 | 00:00:00 | 00:00:00 | |
| PETON7-10 | 2026-09-02 11:39:27 | 47.40004 | 19.32519 | 91° | 60km/h | 7094m | 5.6m/s | 0°C | 0% | 0hPa | 0V | 00:00:00 | 00:00:00 | 00:00:00 | |
| ATIDSZ-14 | 2026-09-02 11:39:24 | 47.40003 | 19.32475 | 86° | 60km/h | 7084m | 6.5m/s | -23.4°C | 33.5% | 422.8hPa | 0V | 00:00:00 | 00:00:00 | 00:00:00 | |
| PETON7-10 | 2026-09-02 11:39:11 | 47.40042 | 19.32158 | 111° | 62km/h | 7003m | 4.7m/s | 0°C | 0% | 0hPa | 0V | 00:00:00 | 00:44:02 | 00:00:00 | |
| ATIDSZ-14 | 2026-09-02 11:39:03 | 47.40066 | 19.31997 | 96° | 69km/h | 6961m | 5.6m/s | -22.4°C | 33.5% | 430.1hPa | 0V | 00:00:00 | 00:00:00 | 00:00:00 | |
| PETON7-10 | 2026-09-02 11:38:56 | 47.40069 | 19.31836 | 82° | 58km/h | 6917m | 3.7m/s | 0°C | 0% | 0hPa | 0V | 00:00:00 | 00:00:00 | 00:00:00 | |
| ATIDSZ-14 | 2026-09-02 11:38:42 | 47.40106 | 19.31553 | 102° | 62km/h | 6842m | 5.6m/s | -21.4°C | 41.5% | 436.9hPa | 0V | 00:00:00 | 00:00:00 | 00:00:00 | |
| ATIDSZ-14 | 2026-09-02 11:38:21 | 47.40133 | 19.31147 | 96° | 60km/h | 6719m | 7.4m/s | -20.5°C | 37.3% | 444.4hPa | 0V | 00:00:00 | 00:00:00 | 00:00:00 | |
| GYPAP8-17 | 2026-09-02 11:38:14 | 47.40158 | 19.31003 | 110° | 51km/h | 6676m | 7.0m/s | 0°C | 0% | 0hPa | 0V | 00:00:00 | 00:00:00 | 00:00:00 | |
| ATIDSZ-14 | 2026-09-02 11:38:01 | 47.40177 | 19.30717 | 108° | 66km/h | 6593m | 6.2m/s | -19.4°C | 35.0% | 452.0hPa | 0V | 00:00:00 | 00:00:00 | 00:00:00 | |
| ATIDSZ-14 | 2026-09-02 11:37:42 | 47.40221 | 19.30275 | 107° | 69km/h | 6486m | 6.3m/s | -18.5°C | 33.7% | 458.5hPa | 0V | 00:00:00 | 00:00:00 | 00:00:00 | |
| ATIDSZ-14 | 2026-09-02 11:37:20 | 47.40280 | 19.29844 | 109° | 51km/h | 6370m | 4.5m/s | -17.4°C | 28.4% | 465.8hPa | 0V | 00:00:00 | 00:00:00 | 00:00:00 | |
| ATIDSZ-14 | 2026-09-02 11:36:59 | 47.40338 | 19.29431 | 104° | 49km/h | 6242m | 6.5m/s | -16.4°C | 27.1% | 473.7hPa | 0V | 00:00:00 | 00:00:00 | 00:00:00 | |
| ATIDSZ-14 | 2026-09-02 11:36:38 | 47.40440 | 19.29029 | 107° | 38km/h | 6133m | 5.0m/s | -15.9°C | 15.7% | 480.6hPa | 0V | 00:00:00 | 00:00:00 | 00:00:00 | |
| ATIDSZ-14 | 2026-09-02 11:36:17 | 47.40508 | 19.28589 | 117° | 55km/h | 6028m | 5.5m/s | -15.3°C | 15.2% | 487.5hPa | 0V | 00:00:00 | 00:00:00 | 00:00:00 | |
| ATIDSZ-14 | 2026-09-02 11:35:56 | 47.40607 | 19.28214 | 108° | 35km/h | 5906m | 5.8m/s | -15.9°C | 35.0% | 495.4hPa | 0V | 00:00:00 | 00:00:00 | 00:00:00 | |
| ATIDSZ-14 | 2026-09-02 11:35:36 | 47.40687 | 19.27947 | 133° | 26km/h | 5800m | 5.0m/s | -16.1°C | 56.7% | 502.3hPa | 0V | 00:00:00 | 00:00:00 | 00:00:00 | |
| ATIDSZ-14 | 2026-09-02 11:35:17 | 47.40795 | 19.27698 | 123° | 35km/h | 5693m | 6.9m/s | -15.9°C | 68.7% | 509.5hPa | 0V | 00:00:00 | 00:00:00 | 00:00:00 | |
| ATIDSZ-14 | 2026-09-02 11:34:55 | 47.40885 | 19.27424 | 127° | 46km/h | 5582m | 5.6m/s | -15.1°C | 0% | 517.0hPa | 0V | 00:00:00 | 00:00:00 | 00:00:00 | |
| ATIDSZ-14 | 2026-09-02 11:34:13 | 47.41069 | 19.26772 | 119° | 46km/h | 5359m | 5.6m/s | -13.5°C | 0% | 532.4hPa | 0V | 00:00:00 | 00:00:00 | 00:00:00 | |
| ATIDSZ-14 | 2026-09-02 11:33:53 | 47.41150 | 19.26446 | 115° | 53km/h | 5252m | 6.7m/s | -12.5°C | 0% | 540.1hPa | 0V | 00:00:00 | 00:00:00 | 00:00:00 | |
| ATIDSZ-14 | 2026-09-02 11:33:31 | 47.41223 | 19.26075 | 97° | 49km/h | 5136m | 5.8m/s | -11.4°C | 0% | 548.4hPa | 0V | 00:00:00 | 00:00:00 | 00:00:00 | |
| ATIDSZ-14 | 2026-09-02 11:33:11 | 47.41267 | 19.25755 | 110° | 44km/h | 5018m | 4.8m/s | -10.6°C | 0% | 556.7hPa | 0V | 00:00:00 | 00:00:00 | 00:00:00 | |
| ATIDSZ-14 | 2026-09-02 11:30:46 | 47.41603 | 19.23816 | 124° | 24km/h | 4099m | 7.3m/s | -2.9°C | 0% | 625.9hPa | 0V | 00:00:00 | 00:00:00 | 00:00:00 | |
| ATIDSZ-14 | 2026-09-02 11:30:22 | 47.41681 | 19.23499 | 115° | 44km/h | 3951m | 7.0m/s | -1.6°C | 0% | 637.6hPa | 0V | 00:00:00 | 00:00:00 | 00:00:00 | |
| ATIDSZ-14 | 2026-09-02 11:29:57 | 47.41759 | 19.23141 | 111° | 53km/h | 3802m | 5.4m/s | -0.6°C | 0% | 649.7hPa | 0V | 00:00:00 | 00:00:00 | 00:00:00 | |
| OM5KV | 2026-09-02 11:29:45 | 47.41790 | 19.22969 | 109° | 31km/h | 3737m | 6.6m/s | -0.3°C | 31.2% | 655.1hPa | 0V | 00:00:00 | 00:00:00 | 00:00:00 | |
| ATIDSZ-14 | 2026-09-02 11:29:36 | 47.41831 | 19.22856 | 110° | 51km/h | 3686m | 5.9m/s | -0.1°C | 0% | 659.3hPa | 0V | 00:00:00 | 00:00:00 | 00:00:00 | |
| ATIDSZ-14 | 2026-09-02 11:29:15 | 47.41885 | 19.22578 | 114° | 29km/h | 3581m | 5.5m/s | -0.2°C | 0% | 668.2hPa | 0V | 00:00:00 | 00:00:00 | 00:00:00 | |
| ATIDSZ-14 | 2026-09-02 11:28:54 | 47.41960 | 19.22297 | 115° | 47km/h | 3467m | 3.1m/s | -0.2°C | 0% | 0hPa | 0V | 00:00:00 | 00:00:00 | 00:00:00 | |
| ATIDSZ-14 | 2026-09-02 11:28:34 | 47.42039 | 19.21983 | 114° | 47km/h | 3352m | 4.6m/s | -0.7°C | 0% | 0hPa | 0V | 00:00:00 | 00:00:00 | 00:00:00 | |
| ATIDSZ-14 | 2026-09-02 11:28:13 | 47.42094 | 19.21602 | 90° | 51km/h | 3244m | 6.8m/s | 0°C | 0% | 0hPa | 0V | 00:00:00 | 00:00:00 | 00:00:00 | |
| ATIDSZ-14 | 2026-09-02 11:27:51 | 47.42150 | 19.21271 | 101° | 40km/h | 3123m | 6.3m/s | 0°C | 0% | 0hPa | 0V | 00:00:00 | 00:00:00 | 00:00:00 | |
| ATIDSZ-14 | 2026-09-02 11:27:29 | 47.42188 | 19.20959 | 100° | 46km/h | 3012m | 5.8m/s | 0°C | 0% | 0hPa | 0V | 00:00:00 | 00:00:00 | 00:00:00 | |
| OM5KV | 2026-09-02 11:26:52 | 47.42315 | 19.20460 | 100° | 24km/h | 2830m | 6.3m/s | 2.3°C | 86.7% | 733.7hPa | 0V | 00:00:00 | 00:00:00 | 00:00:00 | |
| OM5KV | 2026-09-02 11:26:47 | 47.42328 | 19.20407 | 124° | 27km/h | 2804m | 6.5m/s | 2.5°C | 85.2% | 736.0hPa | 0V | 00:00:00 | 00:00:00 | 00:00:00 | |
| OM5KV | 2026-09-02 11:26:41 | 47.42340 | 19.20340 | 119° | 35km/h | 2773m | 4.8m/s | 2.7°C | 85.7% | 738.8hPa | 0V | 00:00:00 | 00:00:00 | 00:00:00 | |
| OM5KV | 2026-09-02 11:26:35 | 47.42356 | 19.20283 | 105° | 29km/h | 2745m | 4.7m/s | 3.0°C | 84.7% | 741.6hPa | 0V | 00:00:00 | 00:00:00 | 00:00:00 | |
| OM5KV | 2026-09-02 11:26:24 | 47.42384 | 19.20172 | 133° | 20km/h | 2687m | 4.9m/s | 3.4°C | 84.2% | 747.0hPa | 0V | 00:00:00 | 00:00:00 | 00:00:00 | |
| OM5KV | 2026-09-02 11:26:23 | 47.42387 | 19.20167 | 133° | 13km/h | 2683m | 6.5m/s | 3.4°C | 83.9% | 747.4hPa | 0V | 00:00:00 | 00:00:00 | 00:00:00 | |
| OM5KV | 2026-09-02 11:26:07 | 47.42422 | 19.20031 | 110° | 31km/h | 2593m | 5.3m/s | 4.1°C | 82.0% | 755.3hPa | 0V | 00:00:00 | 00:00:00 | 00:00:00 | |
| OM5KV | 2026-09-02 11:26:03 | 47.42430 | 19.19996 | 88° | 20km/h | 2573m | 4.9m/s | 4.2°C | 83.9% | 757.2hPa | 0V | 00:00:00 | 00:00:00 | 00:00:00 | |
| OM5KV | 2026-09-02 11:26:02 | 47.42430 | 19.19988 | 82° | 22km/h | 2567m | 5.8m/s | 4.1°C | 84.7% | 757.6hPa | 0V | 00:00:00 | 00:00:00 | 00:00:00 | |
| OM5KV | 2026-09-02 11:25:53 | 47.42440 | 19.19901 | 102° | 26km/h | 2524m | 7.5m/s | 4.5°C | 83.8% | 761.7hPa | 0V | 00:00:00 | 00:00:00 | 00:00:00 | |
| OM5KV | 2026-09-02 11:25:49 | 47.42449 | 19.19864 | 123° | 20km/h | 2501m | 5.2m/s | 4.8°C | 83.3% | 763.8hPa | 0V | 00:00:00 | 00:00:00 | 00:00:00 | |
| OM5KV | 2026-09-02 11:25:43 | 47.42471 | 19.19826 | 152° | 16km/h | 2466m | 7.2m/s | 5.1°C | 81.9% | 767.2hPa | 0V | 00:00:00 | 00:00:00 | 00:00:00 | |
| OM5KV | 2026-09-02 11:25:42 | 47.42473 | 19.19819 | 89° | 11km/h | 2456m | 6.4m/s | 5.2°C | 81.9% | 768.2hPa | 0V | 00:00:00 | 00:00:00 | 00:00:00 | |
| OM5KV | 2026-09-02 11:25:37 | 47.42475 | 19.19788 | 91° | 27km/h | 2430m | 5.5m/s | 5.3°C | 82.3% | 770.6hPa | 0V | 00:00:00 | 00:00:00 | 00:00:00 | |
| OM5KV | 2026-09-02 11:25:31 | 47.42476 | 19.19729 | 98° | 27km/h | 2397m | 7.9m/s | 5.5°C | 82.9% | 773.9hPa | 0V | 00:00:00 | 00:00:00 | 00:00:00 | |
| OM5KV | 2026-09-02 11:25:30 | 47.42478 | 19.19718 | 114° | 31km/h | 2391m | 6.2m/s | 5.6°C | 83.4% | 774.5hPa | 0V | 00:00:00 | 00:00:00 | 00:00:00 | |
| OM5KV | 2026-09-02 11:25:25 | 47.42505 | 19.19684 | 146° | 31km/h | 2365m | 7.1m/s | 5.8°C | 83.0% | 777.1hPa | 0V | 00:00:00 | 00:00:00 | 00:00:00 | |
| OM5KV | 2026-09-02 11:25:24 | 47.42511 | 19.19676 | 132° | 31km/h | 2359m | 5.7m/s | 5.8°C | 83.1% | 777.6hPa | 0V | 00:00:00 | 00:00:00 | 00:00:00 | |
| OM5KV | 2026-09-02 11:25:18 | 47.42527 | 19.19610 | 100° | 29km/h | 2331m | 6.2m/s | 6.1°C | 82.1% | 780.3hPa | 0V | 00:00:00 | 00:00:00 | 00:00:00 | |
| OM5KV | 2026-09-02 11:25:13 | 47.42534 | 19.19558 | 111° | 16km/h | 2298m | 5.5m/s | 6.2°C | 82.5% | 783.4hPa | 0V | 00:00:00 | 00:00:00 | 00:00:00 | |
| OM5KV | 2026-09-02 11:25:12 | 47.42536 | 19.19551 | 124° | 18km/h | 2293m | 6.0m/s | 6.2°C | 82.4% | 784.0hPa | 0V | 00:00:00 | 00:00:00 | 00:00:00 | |
| OM5KV | 2026-09-02 11:25:09 | 47.42549 | 19.19530 | 125° | 31km/h | 2276m | 5.8m/s | 6.3°C | 82.6% | 785.4hPa | 0V | 00:00:00 | 00:00:00 | 00:00:00 | |
| OM5KV | 2026-09-02 11:25:06 | 47.42558 | 19.19498 | 100° | 26km/h | 2258m | 6.3m/s | 6.4°C | 82.6% | 786.9hPa | 0V | 00:00:00 | 00:00:00 | 00:00:00 | |
| OM5KV | 2026-09-02 11:25:02 | 47.42567 | 19.19464 | 120° | 26km/h | 2235m | 6.8m/s | 6.6°C | 81.6% | 789.0hPa | 0V | 00:00:00 | 00:00:00 | 00:00:00 | |
| OM5KV | 2026-09-02 11:25:01 | 47.42570 | 19.19454 | 107° | 26km/h | 2227m | 8.1m/s | 6.6°C | 81.2% | 789.8hPa | 0V | 00:00:00 | 00:00:00 | 00:00:00 | |
| OM5KV | 2026-09-02 11:24:56 | 47.42580 | 19.19417 | 127° | 29km/h | 2201m | 6.5m/s | 6.9°C | 80.8% | 792.5hPa | 0V | 00:00:00 | 00:00:00 | 00:00:00 | |
| OM5KV | 2026-09-02 11:24:55 | 47.42584 | 19.19407 | 121° | 31km/h | 2196m | 6.1m/s | 6.9°C | 80.6% | 793.0hPa | 0V | 00:00:00 | 00:00:00 | 00:00:00 | |
| OM5KV | 2026-09-02 11:24:50 | 47.42596 | 19.19359 | 122° | 22km/h | 2165m | 7.6m/s | 7.2°C | 78.6% | 796.2hPa | 0V | 00:00:00 | 00:00:00 | 00:00:00 | |
| OM5KV | 2026-09-02 11:24:49 | 47.42600 | 19.19353 | 138° | 22km/h | 2159m | 4.5m/s | 7.3°C | 79.0% | 796.7hPa | 0V | 00:00:00 | 00:00:00 | 00:00:00 | |
| OM5KV | 2026-09-02 11:24:45 | 47.42613 | 19.19324 | 124° | 9km/h | 2133m | 6.2m/s | 7.4°C | 77.9% | 799.2hPa | 0V | 00:00:00 | 00:00:00 | 00:00:00 | |
| OM5KV | 2026-09-02 11:24:37 | 47.42641 | 19.19306 | 159° | 22km/h | 2093m | 7.6m/s | 7.7°C | 77.2% | 802.9hPa | 0V | 00:00:00 | 00:00:00 | 00:00:00 | |
| OM5KV | 2026-09-02 11:24:34 | 47.42649 | 19.19295 | 86° | 13km/h | 2075m | 4.3m/s | 7.9°C | 77.2% | 804.6hPa | 0V | 00:00:00 | 00:00:00 | 00:00:00 | |
| OM5KV | 2026-09-02 11:24:32 | 47.42647 | 19.19285 | 90° | 15km/h | 2063m | 8.5m/s | 8.0°C | 75.8% | 805.8hPa | 0V | 00:00:00 | 00:00:00 | 00:00:00 | |
| OM5KV | 2026-09-02 11:24:29 | 47.42657 | 19.19258 | 133° | 26km/h | 2040m | 4.8m/s | 8.2°C | 75.4% | 808.1hPa | 0V | 00:00:00 | 00:00:00 | 00:00:00 | |
| OM5KV | 2026-09-02 11:24:27 | 47.42662 | 19.19252 | 139° | 24km/h | 2033m | 9.2m/s | 8.3°C | 74.6% | 808.8hPa | 0V | 00:00:00 | 00:00:00 | 00:00:00 | |
| OM5KV | 2026-09-02 11:24:24 | 47.42673 | 19.19232 | 119° | 20km/h | 2007m | 5.9m/s | 8.5°C | 73.9% | 811.2hPa | 0V | 00:00:00 | 00:00:00 | 00:00:00 | |
| OM5KV | 2026-09-02 11:24:23 | 47.42679 | 19.19216 | 126° | 27km/h | 1996m | 5.6m/s | 8.6°C | 73.5% | 812.1hPa | 0V | 00:00:00 | 00:00:00 | 00:00:00 | |
| OM5KV | 2026-09-02 11:24:17 | 47.42697 | 19.19182 | 102° | 20km/h | 1971m | 5.3m/s | 8.8°C | 72.8% | 814.5hPa | 0V | 00:00:00 | 00:00:00 | 00:00:00 | |
| OM5KV | 2026-09-02 11:24:11 | 47.42709 | 19.19142 | 125° | 24km/h | 1944m | 5.4m/s | 9.1°C | 71.7% | 817.2hPa | 0V | 00:00:00 | 00:00:00 | 00:00:00 | |
| OM5KV | 2026-09-02 11:24:05 | 47.42723 | 19.19099 | 151° | 18km/h | 1912m | 6.2m/s | 9.4°C | 71.6% | 820.4hPa | 0V | 00:00:00 | 00:00:00 | 00:00:00 | |
| OM5KV | 2026-09-02 11:24:00 | 47.42744 | 19.19080 | 138° | 22km/h | 1882m | 7.6m/s | 9.6°C | 70.3% | 823.5hPa | 0V | 00:00:00 | 00:00:00 | 00:00:00 | |
| OM5KV | 2026-09-02 11:23:58 | 47.42750 | 19.19068 | 114° | 16km/h | 1868m | 6.6m/s | 9.7°C | 70.1% | 824.8hPa | 0V | 00:00:00 | 00:00:00 | 00:00:00 | |
| OM5KV | 2026-09-02 11:23:52 | 47.42770 | 19.19031 | 138° | 27km/h | 1830m | 6.6m/s | 10.0°C | 69.0% | 828.4hPa | 0V | 00:00:00 | 00:00:00 | 00:00:00 | |
| OM5KV | 2026-09-02 11:23:42 | 47.42793 | 19.18980 | 147° | 15km/h | 1773m | 6.5m/s | 10.5°C | 67.2% | 834.2hPa | 0V | 00:00:00 | 00:00:00 | 00:00:00 | |
| OM5KV | 2026-09-02 11:23:41 | 47.42797 | 19.18976 | 146° | 16km/h | 1767m | 7.3m/s | 10.4°C | 67.8% | 834.8hPa | 0V | 00:00:00 | 00:00:00 | 00:00:00 | |
| OM5KV | 2026-09-02 11:23:35 | 47.42825 | 19.18938 | 122° | 29km/h | 1726m | 6.0m/s | 10.8°C | 66.2% | 838.8hPa | 0V | 00:00:00 | 00:00:00 | 00:00:00 | |
| OM5KV | 2026-09-02 11:23:34 | 47.42828 | 19.18930 | 116° | 22km/h | 1721m | 6.2m/s | 10.9°C | 66.1% | 839.3hPa | 0V | 00:00:00 | 00:00:00 | 00:00:00 | |
| OM5KV | 2026-09-02 11:23:31 | 47.42835 | 19.18911 | 104° | 20km/h | 1707m | 5.8m/s | 10.9°C | 67.0% | 840.9hPa | 0V | 00:00:00 | 00:00:00 | 00:00:00 | |
| OM5KV | 2026-09-02 11:23:28 | 47.42839 | 19.18885 | 113° | 27km/h | 1688m | 7.7m/s | 11.1°C | 67.4% | 842.9hPa | 0V | 00:00:00 | 00:00:00 | 00:00:00 | |
| OM5KV | 2026-09-02 11:23:18 | 47.42880 | 19.18825 | 116° | 20km/h | 1619m | 5.8m/s | 11.6°C | 66.4% | 850.0hPa | 0V | 00:00:00 | 00:00:00 | 00:00:00 | |
| OM5KV | 2026-09-02 11:23:17 | 47.42882 | 19.18818 | 106° | 20km/h | 1613m | 6.6m/s | 0°C | 0% | 850.5hPa | 0V | 00:00:00 | 00:00:00 | 00:00:00 | |
| OM5KV | 2026-09-02 11:23:12 | 47.42900 | 19.18782 | 157° | 16km/h | 1583m | 7.1m/s | 11.9°C | 65.3% | 853.6hPa | 0V | 00:00:00 | 00:00:00 | 00:00:00 | |
| OM5KV | 2026-09-02 11:23:11 | 47.42904 | 19.18780 | 170° | 13km/h | 1576m | 6.7m/s | 0°C | 0% | 854.3hPa | 0V | 00:00:00 | 00:00:00 | 00:00:00 | |
| OM5KV | 2026-09-02 11:23:11 | 47.42904 | 19.18780 | 170° | 13km/h | 1576m | 6.7m/s | 0°C | 0% | 854.3hPa | 0V | 00:00:00 | 00:00:00 | 00:00:00 | |
| OM5KV | 2026-09-02 11:23:06 | 47.42910 | 19.18768 | 124° | 13km/h | 1546m | 7.4m/s | 12.2°C | 64.4% | 857.4hPa | 0V | 00:00:00 | 00:00:00 | 00:00:00 | |
| OM5KV | 2026-09-02 11:22:59 | 47.42937 | 19.18743 | 114° | 26km/h | 1500m | 6.4m/s | 12.6°C | 0% | 0hPa | 0V | 00:00:00 | 00:00:00 | 00:00:00 | |
| OM5KV | 2026-09-02 11:22:56 | 47.42942 | 19.18718 | 98° | 18km/h | 1481m | 6.7m/s | 0°C | 0% | 0hPa | 0V | 00:00:00 | 00:00:00 | 00:00:00 | |
| OM5KV | 2026-09-02 11:22:54 | 47.42944 | 19.18704 | 110° | 16km/h | 1466m | 7.9m/s | 0°C | 0% | 0hPa | 0V | 00:00:00 | 00:00:00 | 00:00:00 | |
| OM5KV | 2026-09-02 11:22:50 | 47.42944 | 19.18699 | 289° | 5km/h | 1438m | 4.6m/s | 0°C | 0% | 0hPa | 0V | 00:00:00 | 00:00:00 | 00:00:00 | |
| OM5KV | 2026-09-02 11:22:49 | 47.42945 | 19.18701 | 233° | 11km/h | 1433m | 7.8m/s | 0°C | 0% | 0hPa | 0V | 00:00:00 | 00:00:00 | 00:00:00 | |
| OM5KV | 2026-09-02 11:22:48 | 47.42947 | 19.18704 | 237° | 11km/h | 1427m | 5.1m/s | 13.2°C | 0% | 0hPa | 0V | 00:00:00 | 00:00:00 | 00:00:00 | |
| OM5KV | 2026-09-02 11:22:45 | 47.42951 | 19.18707 | 147° | 2km/h | 1406m | 6.0m/s | 0°C | 0% | 0hPa | 0V | 00:00:00 | 00:00:00 | 00:00:00 | |
| OM5KV | 2026-09-02 11:22:31 | 47.42969 | 19.18715 | 295° | 5km/h | 1300m | 8.3m/s | 0°C | 0% | 0hPa | 0V | 00:00:00 | 00:00:00 | 00:00:00 | |
| OM5KV | 2026-09-02 11:22:27 | 47.42973 | 19.18721 | 136° | 4km/h | 1272m | 7.6m/s | 0°C | 0% | 0hPa | 0V | 00:00:00 | 00:00:00 | 00:00:00 | |
| OM5KV | 2026-09-02 11:22:25 | 47.42973 | 19.18717 | 51° | 5km/h | 1247m | 7.6m/s | 0°C | 0% | 0hPa | 0V | 00:00:00 | 00:00:00 | 00:00:00 | |
| OM5KV | 2026-09-02 11:22:22 | 47.42971 | 19.18711 | 73° | 16km/h | 1232m | 8.2m/s | 0°C | 0% | 0hPa | 0V | 00:00:00 | 00:00:00 | 00:00:00 | |
| OM5KV | 2026-09-02 11:22:17 | 47.42974 | 19.18689 | 239° | 5km/h | 1181m | 8.5m/s | 0°C | 0% | 0hPa | 0V | 00:00:00 | 00:00:00 | 00:00:00 |